2016 Cux-Wetter.de -Die Nutzung der Wetterdaten nur mit ausdrcklicher Genehmigung
Wetterdaten: Samstag, 07.04.2018
Datum Zeit Temp. A. Feuchte A. Luftdruck Regen Wind Richtung Richtung Sonnenschein Solar Taupunkt Windchill Windben
07.04.2018 00:00 8,4 C 62 % 1015,9 hPa 0,0 l/m 8,9 km/h (2 Bft) S-SO 149 0 min 0 W/m 1,6 C 6,5 C 17,7 km/h (3 Bft)
07.04.2018 00:03 8,4 C 62 % 1016,0 hPa 0,0 l/m 6,3 km/h (2 Bft) O-NO 71 0 min 0 W/m 1,6 C 8,4 C 11,3 km/h (2 Bft)
07.04.2018 00:06 8,3 C 62 % 1016,0 hPa 0,0 l/m 9,8 km/h (2 Bft) O 88 0 min 0 W/m 1,5 C 5,8 C 19,3 km/h (3 Bft)
07.04.2018 00:09 8,3 C 62 % 1015,9 hPa 0,0 l/m 7,9 km/h (2 Bft) S-SO 161 0 min 0 W/m 1,5 C 7,1 C 16,1 km/h (3 Bft)
07.04.2018 00:12 8,3 C 62 % 1015,9 hPa 0,0 l/m 9,4 km/h (2 Bft) S-SO 152 0 min 0 W/m 1,5 C 6,1 C 19,3 km/h (3 Bft)
07.04.2018 00:15 8,2 C 62 % 1015,9 hPa 0,0 l/m 8,2 km/h (2 Bft) S-SO 159 0 min 0 W/m 1,4 C 6,8 C 17,7 km/h (3 Bft)
07.04.2018 00:18 8,2 C 62 % 1015,7 hPa 0,0 l/m 7,4 km/h (2 Bft) S-SO 159 0 min 0 W/m 1,4 C 7,4 C 14,5 km/h (3 Bft)
07.04.2018 00:21 8,2 C 62 % 1015,9 hPa 0,0 l/m 9,3 km/h (2 Bft) S-SO 154 0 min 0 W/m 1,4 C 6,1 C 17,7 km/h (3 Bft)
07.04.2018 00:24 8,1 C 63 % 1015,8 hPa 0,0 l/m 7,6 km/h (2 Bft) S-SO 159 0 min 0 W/m 1,5 C 7,2 C 17,7 km/h (3 Bft)
07.04.2018 00:27 8,1 C 62 % 1015,9 hPa 0,0 l/m 8,4 km/h (2 Bft) SO 141 0 min 0 W/m 1,3 C 6,6 C 14,5 km/h (3 Bft)
07.04.2018 00:30 8,1 C 62 % 1015,8 hPa 0,0 l/m 9,3 km/h (2 Bft) O 95 0 min 0 W/m 1,3 C 5,9 C 20,9 km/h (4 Bft)
07.04.2018 00:33 8,1 C 62 % 1015,9 hPa 0,0 l/m 11,7 km/h (2 Bft) S-SO 149 0 min 0 W/m 1,3 C 4,5 C 19,3 km/h (3 Bft)
07.04.2018 00:36 8,1 C 62 % 1015,8 hPa 0,0 l/m 9,7 km/h (2 Bft) O 96 0 min 0 W/m 1,3 C 5,7 C 20,9 km/h (4 Bft)
07.04.2018 00:39 8,1 C 62 % 1015,8 hPa 0,0 l/m 9,6 km/h (2 Bft) O-SO 123 0 min 0 W/m 1,3 C 5,8 C 20,9 km/h (4 Bft)
07.04.2018 00:42 8,1 C 62 % 1015,8 hPa 0,0 l/m 10,1 km/h (2 Bft) O-SO 117 0 min 0 W/m 1,3 C 5,4 C 22,5 km/h (4 Bft)
07.04.2018 00:45 8,0 C 63 % 1015,8 hPa 0,0 l/m 8,2 km/h (2 Bft) S-SO 165 0 min 0 W/m 1,4 C 6,6 C 17,7 km/h (3 Bft)
07.04.2018 00:48 8,0 C 63 % 1015,8 hPa 0,0 l/m 10,3 km/h (2 Bft) O-SO 111 0 min 0 W/m 1,4 C 5,2 C 19,3 km/h (3 Bft)
07.04.2018 00:51 8,0 C 63 % 1015,8 hPa 0,0 l/m 10,3 km/h (2 Bft) SO 144 0 min 0 W/m 1,4 C 5,2 C 20,9 km/h (4 Bft)
07.04.2018 00:54 7,9 C 63 % 1015,9 hPa 0,0 l/m 7,9 km/h (2 Bft) SO 129 0 min 0 W/m 1,3 C 6,7 C 20,9 km/h (4 Bft)
07.04.2018 00:57 7,9 C 63 % 1015,8 hPa 0,0 l/m 8,5 km/h (2 Bft) S-SO 151 0 min 0 W/m 1,3 C 6,3 C 14,5 km/h (3 Bft)
07.04.2018 01:00 7,9 C 63 % 1015,9 hPa 0,0 l/m 8,4 km/h (2 Bft) O-SO 111 0 min 0 W/m 1,3 C 6,4 C 16,1 km/h (3 Bft)
07.04.2018 01:03 7,9 C 63 % 1015,8 hPa 0,0 l/m 10,8 km/h (2 Bft) SO 128 0 min 0 W/m 1,3 C 4,8 C 24,1 km/h (4 Bft)
07.04.2018 01:06 7,8 C 63 % 1015,8 hPa 0,0 l/m 10,1 km/h (2 Bft) SO 130 0 min 0 W/m 1,2 C 5,1 C 22,5 km/h (4 Bft)
07.04.2018 01:09 7,8 C 64 % 1015,7 hPa 0,0 l/m 10,5 km/h (2 Bft) SO 134 0 min 0 W/m 1,4 C 4,9 C 16,1 km/h (3 Bft)
07.04.2018 01:12 7,8 C 64 % 1015,8 hPa 0,0 l/m 9,4 km/h (2 Bft) S-SO 157 0 min 0 W/m 1,4 C 5,6 C 19,3 km/h (3 Bft)
07.04.2018 01:15 7,8 C 64 % 1015,8 hPa 0,0 l/m 10,7 km/h (2 Bft) O 88 0 min 0 W/m 1,4 C 4,7 C 24,1 km/h (4 Bft)
07.04.2018 01:18 7,8 C 64 % 1015,7 hPa 0,0 l/m 9,8 km/h (2 Bft) SO 144 0 min 0 W/m 1,4 C 5,3 C 17,7 km/h (3 Bft)
07.04.2018 01:21 7,7 C 64 % 1015,7 hPa 0,0 l/m 6,9 km/h (2 Bft) O-SO 116 0 min 0 W/m 1,3 C 7,3 C 14,5 km/h (3 Bft)
07.04.2018 01:24 7,7 C 64 % 1015,7 hPa 0,0 l/m 7,3 km/h (2 Bft) SO 140 0 min 0 W/m 1,3 C 7,0 C 16,1 km/h (3 Bft)
07.04.2018 01:27 7,7 C 65 % 1015,7 hPa 0,0 l/m 9,3 km/h (2 Bft) SO 138 0 min 0 W/m 1,5 C 5,5 C 17,7 km/h (3 Bft)
07.04.2018 01:30 7,6 C 65 % 1015,7 hPa 0,0 l/m 9,3 km/h (2 Bft) SO 143 0 min 0 W/m 1,5 C 5,4 C 24,1 km/h (4 Bft)
07.04.2018 01:33 7,6 C 65 % 1015,6 hPa 0,0 l/m 12,3 km/h (2 Bft) SO 144 0 min 0 W/m 1,5 C 3,6 C 22,5 km/h (4 Bft)
07.04.2018 01:36 7,6 C 65 % 1015,6 hPa 0,0 l/m 9,7 km/h (2 Bft) SO 132 0 min 0 W/m 1,5 C 5,1 C 20,9 km/h (4 Bft)
07.04.2018 01:39 7,6 C 65 % 1015,5 hPa 0,0 l/m 10,2 km/h (2 Bft) O-SO 117 0 min 0 W/m 1,5 C 4,8 C 19,3 km/h (3 Bft)
07.04.2018 01:42 7,6 C 65 % 1015,4 hPa 0,0 l/m 8,9 km/h (2 Bft) O-SO 123 0 min 0 W/m 1,5 C 5,7 C 17,7 km/h (3 Bft)
07.04.2018 01:45 7,6 C 65 % 1015,3 hPa 0,0 l/m 10,1 km/h (2 Bft) S-SO 151 0 min 0 W/m 1,5 C 4,9 C 20,9 km/h (4 Bft)
07.04.2018 01:48 7,5 C 65 % 1015,3 hPa 0,0 l/m 8,5 km/h (2 Bft) O-SO 110 0 min 0 W/m 1,4 C 5,9 C 20,9 km/h (4 Bft)
07.04.2018 01:51 7,5 C 65 % 1015,3 hPa 0,0 l/m 7,8 km/h (2 Bft) S-SO 150 0 min 0 W/m 1,4 C 6,4 C 17,7 km/h (3 Bft)
07.04.2018 01:54 7,4 C 65 % 1015,3 hPa 0,0 l/m 9,0 km/h (2 Bft) S-SO 155 0 min 0 W/m 1,3 C 5,4 C 19,3 km/h (3 Bft)
07.04.2018 01:57 7,4 C 65 % 1015,3 hPa 0,0 l/m 9,2 km/h (2 Bft) S 173 0 min 0 W/m 1,3 C 5,3 C 19,3 km/h (3 Bft)
07.04.2018 02:00 7,4 C 65 % 1015,4 hPa 0,0 l/m 8,2 km/h (2 Bft) SO 126 0 min 0 W/m 1,3 C 6,0 C 16,1 km/h (3 Bft)
07.04.2018 02:03 7,4 C 65 % 1015,3 hPa 0,0 l/m 6,7 km/h (2 Bft) O-SO 123 0 min 0 W/m 1,3 C 7,2 C 14,5 km/h (3 Bft)
07.04.2018 02:06 7,4 C 65 % 1015,3 hPa 0,0 l/m 7,6 km/h (2 Bft) O 81 0 min 0 W/m 1,3 C 6,4 C 14,5 km/h (3 Bft)
07.04.2018 02:09 7,4 C 65 % 1015,2 hPa 0,0 l/m 8,6 km/h (2 Bft) O 96 0 min 0 W/m 1,3 C 5,7 C 17,7 km/h (3 Bft)
07.04.2018 02:12 7,3 C 65 % 1015,3 hPa 0,0 l/m 8,5 km/h (2 Bft) SO 130 0 min 0 W/m 1,2 C 5,6 C 22,5 km/h (4 Bft)
07.04.2018 02:15 7,3 C 66 % 1015,3 hPa 0,0 l/m 6,6 km/h (2 Bft) O 96 0 min 0 W/m 1,4 C 7,2 C 14,5 km/h (3 Bft)
07.04.2018 02:18 7,3 C 66 % 1015,2 hPa 0,0 l/m 8,0 km/h (2 Bft) O-SO 107 0 min 0 W/m 1,4 C 6,0 C 20,9 km/h (4 Bft)
07.04.2018 02:21 7,3 C 66 % 1015,2 hPa 0,0 l/m 6,0 km/h (2 Bft) O 99 0 min 0 W/m 1,4 C 7,3 C 16,1 km/h (3 Bft)
07.04.2018 02:24 7,2 C 66 % 1015,2 hPa 0,0 l/m 8,0 km/h (2 Bft) SO 128 0 min 0 W/m 1,3 C 5,9 C 19,3 km/h (3 Bft)
07.04.2018 02:27 7,2 C 66 % 1015,2 hPa 0,0 l/m 9,3 km/h (2 Bft) SO 129 0 min 0 W/m 1,3 C 5,0 C 20,9 km/h (4 Bft)
07.04.2018 02:30 7,2 C 66 % 1015,1 hPa 0,0 l/m 8,0 km/h (2 Bft) SO 136 0 min 0 W/m 1,3 C 5,9 C 16,1 km/h (3 Bft)
07.04.2018 02:33 7,1 C 66 % 1015,1 hPa 0,0 l/m 8,3 km/h (2 Bft) S-SO 165 0 min 0 W/m 1,2 C 5,6 C 16,1 km/h (3 Bft)
07.04.2018 02:36 7,1 C 66 % 1015,0 hPa 0,0 l/m 8,5 km/h (2 Bft) O 93 0 min 0 W/m 1,2 C 5,4 C 17,7 km/h (3 Bft)
07.04.2018 02:39 7,1 C 66 % 1015,1 hPa 0,0 l/m 6,9 km/h (2 Bft) SO 129 0 min 0 W/m 1,2 C 6,7 C 12,9 km/h (3 Bft)
07.04.2018 02:42 7,1 C 66 % 1015,1 hPa 0,0 l/m 9,6 km/h (2 Bft) S-SO 150 0 min 0 W/m 1,2 C 4,7 C 20,9 km/h (4 Bft)
07.04.2018 02:45 7,1 C 66 % 1015,1 hPa 0,0 l/m 7,5 km/h (2 Bft) S-SO 164 0 min 0 W/m 1,2 C 6,2 C 16,1 km/h (3 Bft)
07.04.2018 02:48 7,1 C 66 % 1015,0 hPa 0,0 l/m 8,8 km/h (2 Bft) O-SO 122 0 min 0 W/m 1,2 C 5,2 C 16,1 km/h (3 Bft)
07.04.2018 02:51 7,1 C 65 % 1015,0 hPa 0,0 l/m 9,7 km/h (2 Bft) SO 126 0 min 0 W/m 1,0 C 4,6 C 24,1 km/h (4 Bft)
07.04.2018 02:54 7,1 C 65 % 1015,0 hPa 0,0 l/m 7,7 km/h (2 Bft) SO 131 0 min 0 W/m 1,0 C 6,0 C 19,3 km/h (3 Bft)
07.04.2018 02:57 7,1 C 65 % 1015,0 hPa 0,0 l/m 8,1 km/h (2 Bft) SO 142 0 min 0 W/m 1,0 C 5,7 C 20,9 km/h (4 Bft)
07.04.2018 03:00 7,1 C 65 % 1014,9 hPa 0,0 l/m 8,8 km/h (2 Bft) S-SO 167 0 min 0 W/m 1,0 C 5,2 C 14,5 km/h (3 Bft)
07.04.2018 03:03 7,0 C 65 % 1014,8 hPa 0,0 l/m 8,3 km/h (2 Bft) S-SO 159 0 min 0 W/m 0,9 C 5,5 C 14,5 km/h (3 Bft)
07.04.2018 03:06 7,0 C 65 % 1014,9 hPa 0,0 l/m 6,0 km/h (2 Bft) O-SO 113 0 min 0 W/m 0,9 C 7,0 C 9,7 km/h (2 Bft)
07.04.2018 03:09 7,0 C 64 % 1015,0 hPa 0,0 l/m 10,0 km/h (2 Bft) O 92 0 min 0 W/m 0,7 C 4,3 C 20,9 km/h (4 Bft)
07.04.2018 03:12 7,0 C 65 % 1015,0 hPa 0,0 l/m 6,7 km/h (2 Bft) S-SO 153 0 min 0 W/m 0,9 C 6,8 C 12,9 km/h (3 Bft)
07.04.2018 03:15 7,0 C 64 % 1015,0 hPa 0,0 l/m 7,3 km/h (2 Bft) S-SO 151 0 min 0 W/m 0,7 C 6,3 C 22,5 km/h (4 Bft)
07.04.2018 03:18 7,0 C 64 % 1015,0 hPa 0,0 l/m 6,6 km/h (2 Bft) SO 146 0 min 0 W/m 0,7 C 6,9 C 16,1 km/h (3 Bft)
07.04.2018 03:21 7,0 C 64 % 1015,0 hPa 0,0 l/m 5,5 km/h (2 Bft) O-SO 113 0 min 0 W/m 0,7 C 7,0 C 16,1 km/h (3 Bft)
07.04.2018 03:24 7,0 C 64 % 1015,0 hPa 0,0 l/m 7,5 km/h (2 Bft) O-SO 117 0 min 0 W/m 0,7 C 6,1 C 22,5 km/h (4 Bft)
07.04.2018 03:27 6,9 C 64 % 1014,9 hPa 0,0 l/m 5,7 km/h (2 Bft) O-NO 66 0 min 0 W/m 0,6 C 6,9 C 12,9 km/h (3 Bft)
07.04.2018 03:30 6,9 C 65 % 1014,9 hPa 0,0 l/m 5,4 km/h (2 Bft) O-SO 122 0 min 0 W/m 0,8 C 6,9 C 14,5 km/h (3 Bft)
07.04.2018 03:33 6,8 C 65 % 1015,0 hPa 0,0 l/m 6,4 km/h (2 Bft) O-SO 108 0 min 0 W/m 0,7 C 6,8 C 17,7 km/h (3 Bft)
07.04.2018 03:36 6,8 C 64 % 1015,0 hPa 0,0 l/m 4,9 km/h (1 Bft) SO 125 0 min 0 W/m 0,5 C 6,8 C 11,3 km/h (2 Bft)
07.04.2018 03:39 6,8 C 64 % 1015,0 hPa 0,0 l/m 5,3 km/h (1 Bft) O-SO 117 0 min 0 W/m 0,5 C 6,8 C 12,9 km/h (3 Bft)
07.04.2018 03:42 6,8 C 65 % 1015,0 hPa 0,0 l/m 4,4 km/h (1 Bft) O-SO 102 0 min 0 W/m 0,7 C 6,8 C 11,3 km/h (2 Bft)
07.04.2018 03:45 6,8 C 65 % 1015,1 hPa 0,0 l/m 4,8 km/h (1 Bft) S-SO 148 0 min 0 W/m 0,7 C 6,8 C 12,9 km/h (3 Bft)
07.04.2018 03:48 6,7 C 65 % 1015,1 hPa 0,0 l/m 6,1 km/h (2 Bft) SO 136 0 min 0 W/m 0,6 C 6,7 C 14,5 km/h (3 Bft)
07.04.2018 03:51 6,7 C 65 % 1015,0 hPa 0,0 l/m 4,9 km/h (1 Bft) O-SO 121 0 min 0 W/m 0,6 C 6,7 C 11,3 km/h (2 Bft)
07.04.2018 03:54 6,7 C 65 % 1015,0 hPa 0,0 l/m 5,1 km/h (1 Bft) O 96 0 min 0 W/m 0,6 C 6,7 C 16,1 km/h (3 Bft)
07.04.2018 03:57 6,7 C 65 % 1015,0 hPa 0,0 l/m 5,8 km/h (2 Bft) O-SO 118 0 min 0 W/m 0,6 C 6,7 C 11,3 km/h (2 Bft)
07.04.2018 04:00 6,7 C 65 % 1014,9 hPa 0,0 l/m 6,6 km/h (2 Bft) O-SO 123 0 min 0 W/m 0,6 C 6,6 C 14,5 km/h (3 Bft)
07.04.2018 04:03 6,6 C 65 % 1014,9 hPa 0,0 l/m 4,2 km/h (1 Bft) SO 130 0 min 0 W/m 0,5 C 6,6 C 12,9 km/h (3 Bft)
07.04.2018 04:06 6,6 C 65 % 1014,9 hPa 0,0 l/m 4,0 km/h (1 Bft) O-SO 111 0 min 0 W/m 0,5 C 6,6 C 9,7 km/h (2 Bft)
07.04.2018 04:09 6,6 C 65 % 1014,8 hPa 0,0 l/m 3,8 km/h (1 Bft) O 81 0 min 0 W/m 0,5 C 6,6 C 12,9 km/h (3 Bft)
07.04.2018 04:12 6,6 C 65 % 1014,8 hPa 0,0 l/m 6,6 km/h (2 Bft) O 97 0 min 0 W/m 0,5 C 6,5 C 12,9 km/h (3 Bft)
07.04.2018 04:15 6,6 C 65 % 1014,7 hPa 0,0 l/m 5,7 km/h (2 Bft) NO 38 0 min 0 W/m 0,5 C 6,6 C 14,5 km/h (3 Bft)
07.04.2018 04:18 6,6 C 66 % 1014,6 hPa 0,0 l/m 6,1 km/h (2 Bft) O 82 0 min 0 W/m 0,7 C 6,6 C 11,3 km/h (2 Bft)
07.04.2018 04:21 6,5 C 65 % 1014,5 hPa 0,0 l/m 6,5 km/h (2 Bft) O 101 0 min 0 W/m 0,4 C 6,4 C 17,7 km/h (3 Bft)
07.04.2018 04:24 6,6 C 66 % 1014,5 hPa 0,0 l/m 6,2 km/h (2 Bft) O-SO 104 0 min 0 W/m 0,7 C 6,6 C 16,1 km/h (3 Bft)
07.04.2018 04:27 6,6 C 65 % 1014,5 hPa 0,0 l/m 6,8 km/h (2 Bft) O-NO 74 0 min 0 W/m 0,5 C 6,3 C 17,7 km/h (3 Bft)
07.04.2018 04:30 6,6 C 67 % 1014,4 hPa 0,0 l/m 6,1 km/h (2 Bft) NO 45 0 min 0 W/m 0,9 C 6,6 C 16,1 km/h (3 Bft)
07.04.2018 04:33 6,4 C 68 % 1014,4 hPa 0,0 l/m 4,3 km/h (1 Bft) O-NO 76 0 min 0 W/m 0,9 C 6,4 C 8,0 km/h (2 Bft)
07.04.2018 04:36 6,3 C 69 % 1014,4 hPa 0,0 l/m 4,2 km/h (1 Bft) O 86 0 min 0 W/m 1,0 C 6,3 C 8,0 km/h (2 Bft)
07.04.2018 04:39 6,2 C 70 % 1014,4 hPa 0,0 l/m 4,7 km/h (1 Bft) NO 34 0 min 0 W/m 1,1 C 6,2 C 14,5 km/h (3 Bft)
07.04.2018 04:42 6,1 C 71 % 1014,3 hPa 0,0 l/m 4,1 km/h (1 Bft) O-NO 69 0 min 0 W/m 1,2 C 6,1 C 8,0 km/h (2 Bft)
07.04.2018 04:45 6,1 C 72 % 1014,3 hPa 0,0 l/m 4,7 km/h (1 Bft) SO 146 0 min 0 W/m 1,4 C 6,1 C 12,9 km/h (3 Bft)
07.04.2018 04:48 6,0 C 72 % 1014,3 hPa 0,0 l/m 5,9 km/h (2 Bft) O-SO 111 0 min 0 W/m 1,3 C 6,0 C 11,3 km/h (2 Bft)
07.04.2018 04:51 5,9 C 72 % 1014,3 hPa 0,0 l/m 4,1 km/h (1 Bft) O-NO 74 0 min 0 W/m 1,2 C 5,9 C 8,0 km/h (2 Bft)
07.04.2018 04:54 5,9 C 72 % 1014,3 hPa 0,0 l/m 3,4 km/h (1 Bft) S-SW 193 0 min 0 W/m 1,2 C 5,9 C 8,0 km/h (2 Bft)
07.04.2018 04:57 5,8 C 72 % 1014,3 hPa 0,0 l/m 4,1 km/h (1 Bft) SO 144 0 min 0 W/m 1,2 C 5,8 C 12,9 km/h (3 Bft)
07.04.2018 05:00 5,8 C 72 % 1014,3 hPa 0,0 l/m 4,5 km/h (1 Bft) NO 52 0 min 0 W/m 1,2 C 5,8 C 11,3 km/h (2 Bft)
07.04.2018 05:03 5,8 C 72 % 1014,3 hPa 0,0 l/m 4,2 km/h (1 Bft) O 88 0 min 0 W/m 1,2 C 5,8 C 8,0 km/h (2 Bft)
07.04.2018 05:06 5,7 C 73 % 1014,3 hPa 0,0 l/m 4,3 km/h (1 Bft) O 86 0 min 0 W/m 1,2 C 5,7 C 14,5 km/h (3 Bft)
07.04.2018 05:09 5,7 C 73 % 1014,3 hPa 0,0 l/m 4,9 km/h (1 Bft) O 81 0 min 0 W/m 1,2 C 5,7 C 11,3 km/h (2 Bft)
07.04.2018 05:12 5,6 C 73 % 1014,3 hPa 0,0 l/m 5,8 km/h (2 Bft) O-NO 58 0 min 0 W/m 1,2 C 5,6 C 16,1 km/h (3 Bft)
07.04.2018 05:15 5,6 C 73 % 1014,4 hPa 0,0 l/m 4,4 km/h (1 Bft) O 95 0 min 0 W/m 1,2 C 5,6 C 16,1 km/h (3 Bft)
07.04.2018 05:18 5,6 C 73 % 1014,3 hPa 0,0 l/m 4,8 km/h (1 Bft) O-SO 117 0 min 0 W/m 1,2 C 5,6 C 9,7 km/h (2 Bft)
07.04.2018 05:21 5,5 C 73 % 1014,2 hPa 0,0 l/m 4,2 km/h (1 Bft) O-NO 65 0 min 0 W/m 1,1 C 5,5 C 9,7 km/h (2 Bft)
07.04.2018 05:24 5,5 C 73 % 1014,2 hPa 0,0 l/m 5,3 km/h (1 Bft) O 94 0 min 0 W/m 1,1 C 5,5 C 11,3 km/h (2 Bft)
07.04.2018 05:27 5,5 C 72 % 1014,2 hPa 0,0 l/m 5,3 km/h (1 Bft) SO 130 0 min 0 W/m 0,9 C 5,5 C 16,1 km/h (3 Bft)
07.04.2018 05:30 5,6 C 71 % 1014,2 hPa 0,0 l/m 5,9 km/h (2 Bft) SO 134 0 min 0 W/m 0,8 C 5,6 C 16,1 km/h (3 Bft)
07.04.2018 05:33 5,6 C 71 % 1014,2 hPa 0,0 l/m 5,6 km/h (2 Bft) O-SO 108 0 min 0 W/m 0,8 C 5,6 C 12,9 km/h (3 Bft)
07.04.2018 05:36 5,6 C 71 % 1014,2 hPa 0,0 l/m 4,5 km/h (1 Bft) O-SO 112 0 min 0 W/m 0,8 C 5,6 C 11,3 km/h (2 Bft)
07.04.2018 05:39 5,6 C 71 % 1014,1 hPa 0,0 l/m 7,0 km/h (2 Bft) O-SO 111 0 min 0 W/m 0,8 C 5,1 C 16,1 km/h (3 Bft)
07.04.2018 05:42 5,7 C 70 % 1014,1 hPa 0,0 l/m 6,2 km/h (2 Bft) O 86 0 min 0 W/m 0,7 C 5,7 C 16,1 km/h (3 Bft)
07.04.2018 05:45 5,7 C 70 % 1014,0 hPa 0,0 l/m 6,6 km/h (2 Bft) N-NO 32 0 min 0 W/m 0,7 C 5,6 C 14,5 km/h (3 Bft)
07.04.2018 05:48 5,7 C 70 % 1014,0 hPa 0,0 l/m 6,3 km/h (2 Bft) SO 129 0 min 0 W/m 0,7 C 5,7 C 14,5 km/h (3 Bft)
07.04.2018 05:51 5,7 C 70 % 1014,0 hPa 0,0 l/m 5,2 km/h (1 Bft) O 99 0 min 0 W/m 0,7 C 5,7 C 9,7 km/h (2 Bft)
07.04.2018 05:54 5,7 C 70 % 1014,0 hPa 0,0 l/m 6,1 km/h (2 Bft) SO 130 0 min 0 W/m 0,7 C 5,7 C 11,3 km/h (2 Bft)
07.04.2018 05:57 5,6 C 70 % 1013,9 hPa 0,0 l/m 7,0 km/h (2 Bft) O-NO 65 0 min 0 W/m 0,6 C 5,1 C 16,1 km/h (3 Bft)
07.04.2018 06:00 5,6 C 70 % 1013,9 hPa 0,0 l/m 7,5 km/h (2 Bft) O-SO 105 0 min 0 W/m 0,6 C 4,6 C 17,7 km/h (3 Bft)
07.04.2018 06:03 5,6 C 70 % 1013,9 hPa 0,0 l/m 6,4 km/h (2 Bft) O 98 0 min 0 W/m 0,6 C 5,6 C 12,9 km/h (3 Bft)
07.04.2018 06:06 5,6 C 70 % 1013,8 hPa 0,0 l/m 7,0 km/h (2 Bft) SO 134 0 min 0 W/m 0,6 C 5,1 C 17,7 km/h (3 Bft)
07.04.2018 06:09 5,5 C 70 % 1013,8 hPa 0,0 l/m 7,2 km/h (2 Bft) SO 127 0 min 0 W/m 0,5 C 4,8 C 11,3 km/h (2 Bft)
07.04.2018 06:12 5,5 C 70 % 1013,7 hPa 0,0 l/m 5,6 km/h (2 Bft) S-SO 165 0 min 0 W/m 0,5 C 5,5 C 11,3 km/h (2 Bft)
07.04.2018 06:15 5,4 C 70 % 1013,7 hPa 0,0 l/m 5,8 km/h (2 Bft) SO 134 0 min 0 W/m 0,4 C 5,4 C 14,5 km/h (3 Bft)
07.04.2018 06:18 5,4 C 70 % 1013,6 hPa 0,0 l/m 6,4 km/h (2 Bft) SO 128 0 min 0 W/m 0,4 C 5,4 C 12,9 km/h (3 Bft)
07.04.2018 06:21 5,4 C 70 % 1013,6 hPa 0,0 l/m 7,0 km/h (2 Bft) S-SO 150 0 min 0 W/m 0,4 C 4,9 C 12,9 km/h (3 Bft)
07.04.2018 06:24 5,4 C 70 % 1013,6 hPa 0,0 l/m 6,8 km/h (2 Bft) SO 133 0 min 0 W/m 0,4 C 5,1 C 14,5 km/h (3 Bft)
07.04.2018 06:27 5,4 C 70 % 1013,5 hPa 0,0 l/m 6,6 km/h (2 Bft) O-SO 118 0 min 0 W/m 0,4 C 5,2 C 12,9 km/h (3 Bft)
07.04.2018 06:30 5,3 C 70 % 1013,4 hPa 0,0 l/m 5,4 km/h (2 Bft) S-SO 149 0 min 0 W/m 0,3 C 5,3 C 11,3 km/h (2 Bft)
07.04.2018 06:33 5,3 C 70 % 1013,4 hPa 0,0 l/m 7,7 km/h (2 Bft) S-SO 161 0 min 0 W/m 0,3 C 4,2 C 14,5 km/h (3 Bft)
07.04.2018 06:36 5,3 C 70 % 1013,4 hPa 0,0 l/m 6,6 km/h (2 Bft) O-SO 117 0 min 0 W/m 0,3 C 5,1 C 11,3 km/h (2 Bft)
07.04.2018 06:39 5,3 C 69 % 1013,4 hPa 0,0 l/m 8,0 km/h (2 Bft) SO 126 0 min 0 W/m 0,1 C 3,9 C 16,1 km/h (3 Bft)
07.04.2018 06:42 5,4 C 69 % 1013,4 hPa 0,0 l/m 8,6 km/h (2 Bft) O-SO 119 0 min 0 W/m 0,2 C 3,5 C 17,7 km/h (3 Bft)
07.04.2018 06:45 5,4 C 69 % 1013,4 hPa 0,0 l/m 7,8 km/h (2 Bft) O-SO 107 0 min 0 W/m 0,2 C 4,2 C 16,1 km/h (3 Bft)
07.04.2018 06:48 5,4 C 69 % 1013,4 hPa 0,0 l/m 9,2 km/h (2 Bft) S-SO 157 0 min 0 W/m 0,2 C 3,1 C 17,7 km/h (3 Bft)
07.04.2018 06:51 5,4 C 69 % 1013,3 hPa 0,0 l/m 8,2 km/h (2 Bft) S-SO 165 0 min 0 W/m 0,2 C 3,9 C 16,1 km/h (3 Bft)
07.04.2018 06:54 5,4 C 68 % 1013,2 hPa 0,0 l/m 8,5 km/h (2 Bft) SO 140 0 min 5 W/m -0,0 C 3,6 C 16,1 km/h (3 Bft)
07.04.2018 06:57 5,4 C 68 % 1013,2 hPa 0,0 l/m 9,1 km/h (2 Bft) O-SO 119 0 min 7 W/m -0,0 C 3,2 C 19,3 km/h (3 Bft)
07.04.2018 07:00 5,5 C 68 % 1013,2 hPa 0,0 l/m 9,6 km/h (2 Bft) O-SO 120 0 min 9 W/m 0,1 C 2,9 C 19,3 km/h (3 Bft)
07.04.2018 07:03 5,5 C 68 % 1013,1 hPa 0,0 l/m 8,6 km/h (2 Bft) SO 136 0 min 9 W/m 0,1 C 3,7 C 16,1 km/h (3 Bft)
07.04.2018 07:06 5,5 C 68 % 1013,1 hPa 0,0 l/m 9,4 km/h (2 Bft) SO 135 0 min 11 W/m 0,1 C 3,1 C 17,7 km/h (3 Bft)
07.04.2018 07:09 5,6 C 68 % 1013,1 hPa 0,0 l/m 7,4 km/h (2 Bft) S-SO 157 0 min 12 W/m 0,2 C 4,7 C 14,5 km/h (3 Bft)
07.04.2018 07:12 5,6 C 68 % 1013,1 hPa 0,0 l/m 10,1 km/h (2 Bft) O-SO 123 0 min 14 W/m 0,2 C 2,7 C 22,5 km/h (4 Bft)
07.04.2018 07:15 5,7 C 67 % 1013,1 hPa 0,0 l/m 11,3 km/h (2 Bft) SO 130 0 min 14 W/m 0,1 C 2,0 C 17,7 km/h (3 Bft)
07.04.2018 07:18 5,7 C 67 % 1013,1 hPa 0,0 l/m 10,6 km/h (2 Bft) S-SO 154 0 min 16 W/m 0,1 C 2,4 C 19,3 km/h (3 Bft)
07.04.2018 07:21 5,7 C 67 % 1013,1 hPa 0,0 l/m 9,9 km/h (2 Bft) SO 140 0 min 18 W/m 0,1 C 2,9 C 17,7 km/h (3 Bft)
07.04.2018 07:24 5,8 C 66 % 1013,1 hPa 0,0 l/m 12,2 km/h (2 Bft) SO 129 0 min 19 W/m -0,0 C 1,6 C 20,9 km/h (4 Bft)
07.04.2018 07:27 5,8 C 66 % 1013,2 hPa 0,0 l/m 10,2 km/h (2 Bft) SO 128 0 min 19 W/m -0,0 C 2,8 C 19,3 km/h (3 Bft)
07.04.2018 07:30 5,8 C 66 % 1013,0 hPa 0,0 l/m 10,6 km/h (2 Bft) SO 142 0 min 21 W/m -0,0 C 2,6 C 16,1 km/h (3 Bft)
07.04.2018 07:33 5,9 C 66 % 1013,0 hPa 0,0 l/m 9,6 km/h (2 Bft) S 175 0 min 21 W/m 0,0 C 3,3 C 19,3 km/h (3 Bft)
07.04.2018 07:36 5,9 C 65 % 1013,0 hPa 0,0 l/m 11,8 km/h (2 Bft) S-SO 152 0 min 23 W/m -0,2 C 1,9 C 20,9 km/h (4 Bft)
07.04.2018 07:39 5,9 C 65 % 1013,1 hPa 0,0 l/m 11,1 km/h (2 Bft) SO 129 0 min 25 W/m -0,2 C 2,3 C 20,9 km/h (4 Bft)
07.04.2018 07:42 6,0 C 65 % 1013,0 hPa 0,0 l/m 10,7 km/h (2 Bft) SO 146 0 min 26 W/m -0,1 C 2,7 C 20,9 km/h (4 Bft)
07.04.2018 07:45 6,0 C 65 % 1013,1 hPa 0,0 l/m 11,8 km/h (2 Bft) SO 136 0 min 26 W/m -0,1 C 2,0 C 22,5 km/h (4 Bft)
07.04.2018 07:48 6,1 C 65 % 1013,1 hPa 0,0 l/m 10,8 km/h (2 Bft) S-SO 153 0 min 28 W/m 0,0 C 2,8 C 20,9 km/h (4 Bft)
07.04.2018 07:51 6,1 C 65 % 1013,0 hPa 0,0 l/m 11,4 km/h (2 Bft) S-SO 161 0 min 30 W/m 0,0 C 2,4 C 20,9 km/h (4 Bft)
07.04.2018 07:54 6,1 C 65 % 1012,9 hPa 0,0 l/m 10,5 km/h (2 Bft) SO 138 0 min 33 W/m 0,0 C 3,0 C 19,3 km/h (3 Bft)
07.04.2018 07:57 6,1 C 65 % 1012,9 hPa 0,0 l/m 10,6 km/h (2 Bft) SO 125 0 min 37 W/m 0,0 C 2,9 C 17,7 km/h (3 Bft)
07.04.2018 08:00 6,1 C 65 % 1012,9 hPa 0,0 l/m 9,8 km/h (2 Bft) S-SO 159 0 min 39 W/m 0,0 C 3,4 C 19,3 km/h (3 Bft)
07.04.2018 08:03 6,1 C 65 % 1013,0 hPa 0,0 l/m 13,0 km/h (3 Bft) SO 127 0 min 40 W/m 0,0 C 1,5 C 22,5 km/h (4 Bft)
07.04.2018 08:06 6,2 C 65 % 1013,0 hPa 0,0 l/m 10,6 km/h (2 Bft) SO 134 0 min 42 W/m 0,1 C 3,0 C 17,7 km/h (3 Bft)
07.04.2018 08:09 6,2 C 64 % 1013,0 hPa 0,0 l/m 11,9 km/h (2 Bft) O-SO 120 0 min 44 W/m -0,1 C 2,2 C 22,5 km/h (4 Bft)
07.04.2018 08:12 6,3 C 64 % 1013,0 hPa 0,0 l/m 10,8 km/h (2 Bft) S-SO 158 0 min 47 W/m 0,0 C 3,0 C 17,7 km/h (3 Bft)
07.04.2018 08:15 6,3 C 64 % 1012,9 hPa 0,0 l/m 11,3 km/h (2 Bft) O-SO 119 0 min 47 W/m 0,0 C 2,7 C 16,1 km/h (3 Bft)
07.04.2018 08:18 6,4 C 65 % 1012,8 hPa 0,0 l/m 11,0 km/h (2 Bft) O-SO 121 0 min 54 W/m 0,3 C 3,0 C 19,3 km/h (3 Bft)
07.04.2018 08:21 6,4 C 64 % 1012,8 hPa 0,0 l/m 10,6 km/h (2 Bft) SO 126 0 min 51 W/m 0,1 C 3,2 C 20,9 km/h (4 Bft)
07.04.2018 08:24 6,5 C 65 % 1012,9 hPa 0,0 l/m 9,2 km/h (2 Bft) O-SO 117 0 min 53 W/m 0,4 C 4,3 C 17,7 km/h (3 Bft)
07.04.2018 08:27 6,6 C 64 % 1012,9 hPa 0,0 l/m 9,9 km/h (2 Bft) SO 129 0 min 56 W/m 0,3 C 3,9 C 16,1 km/h (3 Bft)
07.04.2018 08:30 6,6 C 64 % 1013,0 hPa 0,0 l/m 9,9 km/h (2 Bft) O-SO 108 0 min 56 W/m 0,3 C 3,9 C 17,7 km/h (3 Bft)
07.04.2018 08:33 6,7 C 63 % 1013,0 hPa 0,0 l/m 12,2 km/h (2 Bft) O 101 0 min 58 W/m 0,2 C 2,6 C 24,1 km/h (4 Bft)
07.04.2018 08:36 6,8 C 63 % 1012,8 hPa 0,0 l/m 12,6 km/h (3 Bft) S 176 0 min 62 W/m 0,3 C 2,5 C 20,9 km/h (4 Bft)
07.04.2018 08:39 6,8 C 63 % 1012,8 hPa 0,0 l/m 11,4 km/h (2 Bft) O 101 0 min 63 W/m 0,3 C 3,2 C 17,7 km/h (3 Bft)
07.04.2018 08:42 6,9 C 63 % 1012,8 hPa 0,0 l/m 12,2 km/h (2 Bft) SO 126 0 min 65 W/m 0,4 C 2,8 C 20,9 km/h (4 Bft)
07.04.2018 08:45 6,9 C 63 % 1012,8 hPa 0,0 l/m 13,3 km/h (3 Bft) SO 138 0 min 65 W/m 0,4 C 2,2 C 20,9 km/h (4 Bft)
07.04.2018 08:48 7,0 C 63 % 1012,8 hPa 0,0 l/m 12,4 km/h (2 Bft) SO 140 0 min 67 W/m 0,4 C 2,8 C 22,5 km/h (4 Bft)
07.04.2018 08:51 7,1 C 63 % 1012,7 hPa 0,0 l/m 10,9 km/h (2 Bft) SO 127 0 min 65 W/m 0,5 C 3,8 C 24,1 km/h (4 Bft)
07.04.2018 08:54 7,2 C 63 % 1012,7 hPa 0,0 l/m 12,9 km/h (3 Bft) O-SO 119 0 min 63 W/m 0,6 C 2,8 C 25,7 km/h (4 Bft)
07.04.2018 08:57 7,2 C 63 % 1012,6 hPa 0,0 l/m 12,6 km/h (3 Bft) SO 138 0 min 62 W/m 0,6 C 3,0 C 22,5 km/h (4 Bft)
07.04.2018 09:00 7,3 C 63 % 1012,4 hPa 0,0 l/m 12,3 km/h (2 Bft) SO 144 0 min 63 W/m 0,7 C 3,2 C 27,4 km/h (5 Bft)
07.04.2018 09:03 7,4 C 62 % 1012,4 hPa 0,0 l/m 14,6 km/h (3 Bft) SO 127 0 min 76 W/m 0,6 C 2,2 C 22,5 km/h (4 Bft)
07.04.2018 09:06 7,5 C 63 % 1012,4 hPa 0,0 l/m 12,9 km/h (3 Bft) S-SO 147 0 min 67 W/m 0,9 C 3,1 C 20,9 km/h (4 Bft)
07.04.2018 09:09 7,6 C 62 % 1012,4 hPa 0,0 l/m 11,9 km/h (2 Bft) O-SO 121 0 min 60 W/m 0,8 C 3,8 C 20,9 km/h (4 Bft)
07.04.2018 09:12 7,7 C 62 % 1012,5 hPa 0,0 l/m 11,3 km/h (2 Bft) SO 135 0 min 60 W/m 0,9 C 4,3 C 20,9 km/h (4 Bft)
07.04.2018 09:15 7,8 C 62 % 1012,4 hPa 0,0 l/m 8,9 km/h (2 Bft) O 83 0 min 70 W/m 1,0 C 5,9 C 19,3 km/h (3 Bft)
07.04.2018 09:18 7,8 C 62 % 1012,5 hPa 0,0 l/m 12,5 km/h (2 Bft) S 179 0 min 123 W/m 1,0 C 3,7 C 19,3 km/h (3 Bft)
07.04.2018 09:21 7,9 C 61 % 1012,3 hPa 0,0 l/m 11,2 km/h (2 Bft) S-SO 161 0 min 190 W/m 0,9 C 4,5 C 24,1 km/h (4 Bft)
07.04.2018 09:24 8,1 C 61 % 1012,4 hPa 0,0 l/m 10,2 km/h (2 Bft) S-SO 148 0 min 165 W/m 1,0 C 5,4 C 19,3 km/h (3 Bft)
07.04.2018 09:27 8,3 C 61 % 1012,4 hPa 0,0 l/m 11,6 km/h (2 Bft) O-SO 117 0 min 174 W/m 1,2 C 4,8 C 22,5 km/h (4 Bft)
07.04.2018 09:30 8,6 C 61 % 1012,3 hPa 0,0 l/m 10,9 km/h (2 Bft) O-SO 111 0 min 153 W/m 1,5 C 5,5 C 20,9 km/h (4 Bft)
07.04.2018 09:33 8,7 C 60 % 1012,3 hPa 0,0 l/m 13,7 km/h (3 Bft) O-SO 121 0 min 200 W/m 1,4 C 4,2 C 22,5 km/h (4 Bft)
07.04.2018 09:36 8,8 C 60 % 1012,2 hPa 0,0 l/m 11,8 km/h (2 Bft) SO 140 0 min 211 W/m 1,5 C 5,2 C 19,3 km/h (3 Bft)
07.04.2018 09:39 9,1 C 60 % 1012,1 hPa 0,0 l/m 12,0 km/h (2 Bft) SO 137 0 min 207 W/m 1,8 C 5,5 C 20,9 km/h (4 Bft)
07.04.2018 09:42 9,2 C 60 % 1012,1 hPa 0,0 l/m 10,9 km/h (2 Bft) SO 138 0 min 192 W/m 1,8 C 6,2 C 17,7 km/h (3 Bft)
07.04.2018 09:45 9,4 C 60 % 1012,1 hPa 0,0 l/m 10,4 km/h (2 Bft) S-SO 148 0 min 202 W/m 2,0 C 6,7 C 20,9 km/h (4 Bft)
07.04.2018 09:48 9,6 C 59 % 1012,0 hPa 0,0 l/m 11,1 km/h (2 Bft) O-SO 104 3 min 304 W/m 2,0 C 6,5 C 22,5 km/h (4 Bft)
07.04.2018 09:51 9,8 C 59 % 1012,0 hPa 0,0 l/m 14,6 km/h (3 Bft) S-SO 153 3 min 381 W/m 2,2 C 5,1 C 27,4 km/h (5 Bft)
07.04.2018 09:54 9,9 C 58 % 1011,9 hPa 0,0 l/m 11,4 km/h (2 Bft) SO 140 3 min 401 W/m 2,0 C 6,7 C 19,3 km/h (3 Bft)
07.04.2018 09:57 10,1 C 57 % 1011,9 hPa 0,0 l/m 12,9 km/h (3 Bft) S-SO 163 3 min 353 W/m 2,0 C 6,2 C 25,7 km/h (4 Bft)
07.04.2018 10:00 10,2 C 56 % 1011,9 hPa 0,0 l/m 13,7 km/h (3 Bft) SO 132 3 min 367 W/m 1,8 C 5,9 C 25,7 km/h (4 Bft)
07.04.2018 10:03 10,2 C 56 % 1012,0 hPa 0,0 l/m 15,1 km/h (3 Bft) O-SO 122 3 min 320 W/m 1,8 C 5,3 C 29,0 km/h (5 Bft)
07.04.2018 10:06 10,2 C 58 % 1011,8 hPa 0,0 l/m 9,5 km/h (2 Bft) S-SO 148 0 min 211 W/m 2,3 C 8,1 C 19,3 km/h (3 Bft)
07.04.2018 10:09 10,2 C 57 % 1011,9 hPa 0,0 l/m 13,3 km/h (3 Bft) SO 132 0 min 179 W/m 2,1 C 6,1 C 22,5 km/h (4 Bft)
07.04.2018 10:12 10,2 C 57 % 1011,7 hPa 0,0 l/m 12,8 km/h (3 Bft) SO 137 0 min 230 W/m 2,1 C 6,4 C 20,9 km/h (4 Bft)
07.04.2018 10:15 10,2 C 57 % 1011,7 hPa 0,0 l/m 12,6 km/h (3 Bft) O-SO 123 3 min 327 W/m 2,1 C 6,5 C 24,1 km/h (4 Bft)
07.04.2018 10:18 10,3 C 56 % 1011,6 hPa 0,0 l/m 13,6 km/h (3 Bft) S-SW 193 3 min 292 W/m 1,9 C 6,1 C 30,6 km/h (5 Bft)
07.04.2018 10:21 10,4 C 57 % 1011,6 hPa 0,0 l/m 12,8 km/h (3 Bft) SO 142 3 min 418 W/m 2,3 C 6,6 C 20,9 km/h (4 Bft)
07.04.2018 10:24 10,7 C 56 % 1011,6 hPa 0,0 l/m 12,6 km/h (3 Bft) S-SO 160 3 min 420 W/m 2,3 C 7,0 C 25,7 km/h (4 Bft)
07.04.2018 10:27 10,9 C 56 % 1011,6 hPa 0,0 l/m 9,3 km/h (2 Bft) S-SO 157 3 min 415 W/m 2,5 C 9,0 C 16,1 km/h (3 Bft)
07.04.2018 10:30 11,0 C 56 % 1011,6 hPa 0,0 l/m 11,2 km/h (2 Bft) SO 127 3 min 404 W/m 2,6 C 8,1 C 20,9 km/h (4 Bft)
07.04.2018 10:33 11,1 C 54 % 1011,7 hPa 0,0 l/m 15,2 km/h (3 Bft) S 177 3 min 403 W/m 2,2 C 6,4 C 30,6 km/h (5 Bft)
07.04.2018 10:36 11,2 C 55 % 1011,7 hPa 0,0 l/m 11,0 km/h (2 Bft) S-SO 153 3 min 432 W/m 2,5 C 8,4 C 20,9 km/h (4 Bft)
07.04.2018 10:39 11,3 C 55 % 1011,6 hPa 0,0 l/m 12,9 km/h (3 Bft) S-SO 157 3 min 482 W/m 2,6 C 7,6 C 24,1 km/h (4 Bft)
07.04.2018 10:42 11,4 C 55 % 1011,7 hPa 0,0 l/m 10,7 km/h (2 Bft) S 170 3 min 489 W/m 2,7 C 8,8 C 24,1 km/h (4 Bft)
07.04.2018 10:45 11,6 C 56 % 1011,8 hPa 0,0 l/m 11,3 km/h (2 Bft) S 180 3 min 489 W/m 3,1 C 8,7 C 20,9 km/h (4 Bft)
07.04.2018 10:48 11,7 C 54 % 1011,6 hPa 0,0 l/m 12,8 km/h (3 Bft) SO 146 3 min 501 W/m 2,7 C 8,1 C 22,5 km/h (4 Bft)
07.04.2018 10:51 11,9 C 54 % 1011,5 hPa 0,0 l/m 11,8 km/h (2 Bft) SO 141 3 min 445 W/m 2,9 C 8,8 C 27,4 km/h (5 Bft)
07.04.2018 10:54 11,9 C 53 % 1011,5 hPa 0,0 l/m 13,3 km/h (3 Bft) S 184 3 min 519 W/m 2,6 C 8,1 C 24,1 km/h (4 Bft)
07.04.2018 10:57 12,1 C 55 % 1011,6 hPa 0,0 l/m 8,3 km/h (2 Bft) SO 124 3 min 520 W/m 3,3 C 10,9 C 12,9 km/h (3 Bft)
07.04.2018 11:00 12,4 C 54 % 1011,6 hPa 0,0 l/m 11,7 km/h (2 Bft) S-SO 153 3 min 520 W/m 3,4 C 9,4 C 24,1 km/h (4 Bft)
07.04.2018 11:03 12,5 C 52 % 1011,6 hPa 0,0 l/m 11,6 km/h (2 Bft) O-SO 105 3 min 512 W/m 2,9 C 9,6 C 20,9 km/h (4 Bft)
07.04.2018 11:06 12,5 C 54 % 1011,6 hPa 0,0 l/m 11,6 km/h (2 Bft) S-SO 150 3 min 531 W/m 3,5 C 9,6 C 20,9 km/h (4 Bft)
07.04.2018 11:09 12,8 C 54 % 1011,6 hPa 0,0 l/m 9,3 km/h (2 Bft) S-SO 166 3 min 526 W/m 3,7 C 11,1 C 20,9 km/h (4 Bft)
07.04.2018 11:12 12,9 C 53 % 1011,6 hPa 0,0 l/m 11,8 km/h (2 Bft) O-SO 104 3 min 538 W/m 3,6 C 9,9 C 24,1 km/h (4 Bft)
07.04.2018 11:15 13,0 C 52 % 1011,6 hPa 0,0 l/m 10,4 km/h (2 Bft) S-SO 150 3 min 540 W/m 3,4 C 10,7 C 19,3 km/h (3 Bft)
07.04.2018 11:18 13,1 C 52 % 1011,6 hPa 0,0 l/m 13,2 km/h (3 Bft) O-SO 111 3 min 564 W/m 3,5 C 9,6 C 25,7 km/h (4 Bft)
07.04.2018 11:21 13,2 C 52 % 1011,5 hPa 0,0 l/m 12,1 km/h (2 Bft) SO 134 3 min 570 W/m 3,6 C 10,2 C 20,9 km/h (4 Bft)
07.04.2018 11:24 13,4 C 52 % 1011,5 hPa 0,0 l/m 9,4 km/h (2 Bft) SO 134 3 min 578 W/m 3,7 C 11,7 C 17,7 km/h (3 Bft)
07.04.2018 11:27 13,6 C 51 % 1011,4 hPa 0,0 l/m 8,7 km/h (2 Bft) O 93 3 min 585 W/m 3,7 C 12,2 C 14,5 km/h (3 Bft)
07.04.2018 11:30 13,9 C 52 % 1011,4 hPa 0,0 l/m 9,6 km/h (2 Bft) S-SO 149 3 min 557 W/m 4,2 C 12,1 C 20,9 km/h (4 Bft)
07.04.2018 11:33 13,8 C 49 % 1011,4 hPa 0,0 l/m 12,4 km/h (2 Bft) SO 135 3 min 591 W/m 3,3 C 10,7 C 19,3 km/h (3 Bft)
07.04.2018 11:36 13,8 C 52 % 1011,4 hPa 0,0 l/m 10,4 km/h (2 Bft) S-SO 159 3 min 589 W/m 4,1 C 11,6 C 17,7 km/h (3 Bft)
07.04.2018 11:39 14,1 C 52 % 1011,3 hPa 0,0 l/m 9,6 km/h (2 Bft) S 180 3 min 594 W/m 4,4 C 12,3 C 19,3 km/h (3 Bft)
07.04.2018 11:42 14,1 C 52 % 1011,4 hPa 0,0 l/m 12,0 km/h (2 Bft) SO 125 3 min 589 W/m 4,4 C 11,2 C 22,5 km/h (4 Bft)
07.04.2018 11:45 14,2 C 50 % 1011,3 hPa 0,0 l/m 11,1 km/h (2 Bft) SO 134 3 min 545 W/m 3,9 C 11,7 C 25,7 km/h (4 Bft)
07.04.2018 11:48 14,2 C 49 % 1011,3 hPa 0,0 l/m 12,5 km/h (2 Bft) S-SO 155 3 min 578 W/m 3,6 C 11,1 C 24,1 km/h (4 Bft)
07.04.2018 11:51 14,3 C 50 % 1011,3 hPa 0,0 l/m 10,5 km/h (2 Bft) O-SO 114 3 min 564 W/m 4,0 C 12,1 C 20,9 km/h (4 Bft)
07.04.2018 11:54 14,4 C 49 % 1011,4 hPa 0,0 l/m 11,0 km/h (2 Bft) S-SO 155 3 min 564 W/m 3,8 C 12,0 C 19,3 km/h (3 Bft)
07.04.2018 11:57 14,3 C 49 % 1011,3 hPa 0,0 l/m 13,9 km/h (3 Bft) S-SO 163 3 min 568 W/m 3,7 C 10,7 C 29,0 km/h (5 Bft)
07.04.2018 12:00 14,3 C 51 % 1011,4 hPa 0,0 l/m 13,9 km/h (3 Bft) O-SO 108 3 min 541 W/m 4,3 C 10,7 C 22,5 km/h (4 Bft)
07.04.2018 12:03 14,4 C 51 % 1011,3 hPa 0,0 l/m 9,5 km/h (2 Bft) SO 136 3 min 533 W/m 4,4 C 12,7 C 16,1 km/h (3 Bft)
07.04.2018 12:06 14,6 C 50 % 1011,3 hPa 0,0 l/m 10,5 km/h (2 Bft) SO 144 3 min 520 W/m 4,3 C 12,4 C 20,9 km/h (4 Bft)
07.04.2018 12:09 14,8 C 48 % 1011,2 hPa 0,0 l/m 12,2 km/h (2 Bft) SO 125 3 min 504 W/m 3,9 C 12,0 C 29,0 km/h (5 Bft)
07.04.2018 12:12 14,7 C 47 % 1011,3 hPa 0,0 l/m 12,5 km/h (2 Bft) SO 130 3 min 497 W/m 3,5 C 11,7 C 29,0 km/h (5 Bft)
07.04.2018 12:15 14,8 C 49 % 1011,2 hPa 0,0 l/m 14,0 km/h (3 Bft) S-SO 156 3 min 526 W/m 4,2 C 11,3 C 27,4 km/h (5 Bft)
07.04.2018 12:18 14,9 C 51 % 1011,1 hPa 0,0 l/m 11,5 km/h (2 Bft) S-SW 194 3 min 515 W/m 4,9 C 12,4 C 19,3 km/h (3 Bft)
07.04.2018 12:21 15,0 C 48 % 1011,1 hPa 0,0 l/m 13,8 km/h (3 Bft) SO 136 3 min 520 W/m 4,1 C 11,6 C 25,7 km/h (4 Bft)
07.04.2018 12:24 15,1 C 49 % 1011,1 hPa 0,0 l/m 12,5 km/h (2 Bft) SO 139 3 min 531 W/m 4,5 C 12,2 C 22,5 km/h (4 Bft)
07.04.2018 12:27 15,3 C 49 % 1011,1 hPa 0,0 l/m 11,9 km/h (2 Bft) SO 134 3 min 543 W/m 4,7 C 12,7 C 19,3 km/h (3 Bft)
07.04.2018 12:30 15,4 C 47 % 1011,1 hPa 0,0 l/m 13,9 km/h (3 Bft) S 169 3 min 564 W/m 4,1 C 12,0 C 20,9 km/h (4 Bft)
07.04.2018 12:33 15,7 C 49 % 1011,1 hPa 0,0 l/m 8,9 km/h (2 Bft) SO 130 3 min 554 W/m 5,0 C 14,4 C 19,3 km/h (3 Bft)
07.04.2018 12:36 15,8 C 49 % 1011,2 hPa 0,0 l/m 10,8 km/h (2 Bft) SW 215 3 min 566 W/m 5,1 C 13,7 C 22,5 km/h (4 Bft)
07.04.2018 12:39 15,8 C 49 % 1011,2 hPa 0,0 l/m 13,0 km/h (3 Bft) SO 143 3 min 615 W/m 5,1 C 12,8 C 22,5 km/h (4 Bft)
07.04.2018 12:42 15,7 C 49 % 1011,2 hPa 0,0 l/m 14,7 km/h (3 Bft) S-SW 198 3 min 612 W/m 5,0 C 12,1 C 27,4 km/h (5 Bft)
07.04.2018 12:45 15,8 C 48 % 1011,2 hPa 0,0 l/m 11,9 km/h (2 Bft) S-SW 194 3 min 631 W/m 4,8 C 13,2 C 22,5 km/h (4 Bft)
07.04.2018 12:48 15,9 C 48 % 1011,1 hPa 0,0 l/m 13,3 km/h (3 Bft) S 175 3 min 626 W/m 4,9 C 12,8 C 22,5 km/h (4 Bft)
07.04.2018 12:51 15,9 C 48 % 1011,1 hPa 0,0 l/m 11,0 km/h (2 Bft) S 175 3 min 628 W/m 4,9 C 13,7 C 20,9 km/h (4 Bft)
07.04.2018 12:54 16,0 C 47 % 1011,1 hPa 0,0 l/m 10,5 km/h (2 Bft) S 175 3 min 668 W/m 4,7 C 14,0 C 20,9 km/h (4 Bft)
07.04.2018 12:57 16,1 C 47 % 1010,9 hPa 0,0 l/m 13,7 km/h (3 Bft) S 169 3 min 675 W/m 4,8 C 12,9 C 24,1 km/h (4 Bft)
07.04.2018 13:00 16,1 C 46 % 1010,9 hPa 0,0 l/m 10,7 km/h (2 Bft) SO 142 3 min 647 W/m 4,5 C 14,0 C 19,3 km/h (3 Bft)
07.04.2018 13:03 16,2 C 45 % 1010,9 hPa 0,0 l/m 13,4 km/h (3 Bft) S 177 3 min 664 W/m 4,3 C 13,2 C 22,5 km/h (4 Bft)
07.04.2018 13:06 16,3 C 46 % 1010,9 hPa 0,0 l/m 9,3 km/h (2 Bft) S 173 3 min 657 W/m 4,7 C 14,9 C 16,1 km/h (3 Bft)
07.04.2018 13:09 16,4 C 47 % 1010,9 hPa 0,0 l/m 11,1 km/h (2 Bft) S 176 3 min 671 W/m 5,1 C 14,2 C 17,7 km/h (3 Bft)
07.04.2018 13:12 16,5 C 46 % 1010,9 hPa 0,0 l/m 8,9 km/h (2 Bft) SO 125 3 min 664 W/m 4,8 C 15,3 C 17,7 km/h (3 Bft)
07.04.2018 13:15 16,6 C 44 % 1010,9 hPa 0,0 l/m 12,6 km/h (3 Bft) O 88 3 min 652 W/m 4,3 C 13,9 C 24,1 km/h (4 Bft)
07.04.2018 13:18 16,6 C 45 % 1010,9 hPa 0,0 l/m 10,7 km/h (2 Bft) S 169 3 min 649 W/m 4,6 C 14,6 C 17,7 km/h (3 Bft)
07.04.2018 13:21 16,7 C 47 % 1011,0 hPa 0,0 l/m 11,3 km/h (2 Bft) S 187 3 min 661 W/m 5,3 C 14,5 C 22,5 km/h (4 Bft)
07.04.2018 13:24 16,7 C 47 % 1010,9 hPa 0,0 l/m 8,3 km/h (2 Bft) S-SO 165 3 min 643 W/m 5,3 C 15,7 C 16,1 km/h (3 Bft)
07.04.2018 13:27 16,8 C 45 % 1010,9 hPa 0,0 l/m 8,3 km/h (2 Bft) S-SO 153 3 min 654 W/m 4,8 C 15,8 C 17,7 km/h (3 Bft)
07.04.2018 13:30 16,9 C 46 % 1010,9 hPa 0,0 l/m 11,0 km/h (2 Bft) SO 139 3 min 628 W/m 5,2 C 14,8 C 20,9 km/h (4 Bft)
07.04.2018 13:33 17,0 C 45 % 1010,9 hPa 0,0 l/m 9,1 km/h (2 Bft) S-SO 152 3 min 647 W/m 5,0 C 15,7 C 17,7 km/h (3 Bft)
07.04.2018 13:36 17,1 C 47 % 1010,8 hPa 0,0 l/m 10,1 km/h (2 Bft) O-SO 121 3 min 633 W/m 5,7 C 15,4 C 20,9 km/h (4 Bft)
07.04.2018 13:39 17,3 C 47 % 1010,9 hPa 0,0 l/m 8,7 km/h (2 Bft) SO 139 3 min 657 W/m 5,9 C 16,2 C 20,9 km/h (4 Bft)
07.04.2018 13:42 17,1 C 44 % 1010,8 hPa 0,0 l/m 12,1 km/h (2 Bft) O-SO 108 3 min 661 W/m 4,8 C 14,7 C 19,3 km/h (3 Bft)
07.04.2018 13:45 17,1 C 44 % 1010,7 hPa 0,0 l/m 9,9 km/h (2 Bft) SO 124 3 min 656 W/m 4,8 C 15,5 C 19,3 km/h (3 Bft)
07.04.2018 13:48 17,3 C 46 % 1010,7 hPa 0,0 l/m 8,0 km/h (2 Bft) SO 132 3 min 643 W/m 5,6 C 16,5 C 17,7 km/h (3 Bft)
07.04.2018 13:51 17,4 C 44 % 1010,6 hPa 0,0 l/m 9,3 km/h (2 Bft) SO 124 3 min 647 W/m 5,0 C 16,1 C 19,3 km/h (3 Bft)
07.04.2018 13:54 17,4 C 43 % 1010,6 hPa 0,0 l/m 9,3 km/h (2 Bft) SO 137 3 min 638 W/m 4,7 C 16,1 C 22,5 km/h (4 Bft)
07.04.2018 13:57 17,5 C 45 % 1010,6 hPa 0,0 l/m 9,2 km/h (2 Bft) S-SO 168 3 min 582 W/m 5,4 C 16,2 C 17,7 km/h (3 Bft)
07.04.2018 14:00 17,5 C 45 % 1010,6 hPa 0,0 l/m 11,3 km/h (2 Bft) SO 146 3 min 613 W/m 5,4 C 15,4 C 17,7 km/h (3 Bft)
07.04.2018 14:03 17,6 C 45 % 1010,5 hPa 0,0 l/m 9,9 km/h (2 Bft) SO 143 3 min 605 W/m 5,5 C 16,0 C 16,1 km/h (3 Bft)
07.04.2018 14:06 17,7 C 43 % 1010,6 hPa 0,0 l/m 8,6 km/h (2 Bft) O-SO 111 3 min 566 W/m 5,0 C 16,7 C 14,5 km/h (3 Bft)
07.04.2018 14:09 17,6 C 43 % 1010,6 hPa 0,0 l/m 8,5 km/h (2 Bft) S 173 3 min 555 W/m 4,9 C 16,6 C 16,1 km/h (3 Bft)
07.04.2018 14:12 17,7 C 45 % 1010,5 hPa 0,0 l/m 7,9 km/h (2 Bft) O-SO 119 3 min 529 W/m 5,6 C 17,0 C 16,1 km/h (3 Bft)
07.04.2018 14:15 17,7 C 44 % 1010,5 hPa 0,0 l/m 7,6 km/h (2 Bft) SO 141 3 min 515 W/m 5,3 C 17,1 C 17,7 km/h (3 Bft)
07.04.2018 14:18 17,8 C 42 % 1010,5 hPa 0,0 l/m 9,1 km/h (2 Bft) S 182 3 min 469 W/m 4,7 C 16,6 C 20,9 km/h (4 Bft)
07.04.2018 14:21 17,8 C 44 % 1010,4 hPa 0,0 l/m 8,1 km/h (2 Bft) S 176 3 min 432 W/m 5,4 C 17,0 C 14,5 km/h (3 Bft)
07.04.2018 14:24 17,8 C 44 % 1010,4 hPa 0,0 l/m 7,0 km/h (2 Bft) SO 146 3 min 429 W/m 5,4 C 17,5 C 17,7 km/h (3 Bft)
07.04.2018 14:27 17,8 C 42 % 1010,5 hPa 0,0 l/m 7,6 km/h (2 Bft) SO 124 3 min 489 W/m 4,7 C 17,2 C 14,5 km/h (3 Bft)
07.04.2018 14:30 17,8 C 42 % 1010,5 hPa 0,0 l/m 6,6 km/h (2 Bft) SO 129 3 min 547 W/m 4,7 C 17,7 C 14,5 km/h (3 Bft)
07.04.2018 14:33 17,8 C 42 % 1010,4 hPa 0,0 l/m 7,7 km/h (2 Bft) SO 138 3 min 510 W/m 4,7 C 17,2 C 14,5 km/h (3 Bft)
07.04.2018 14:36 17,7 C 44 % 1010,4 hPa 0,0 l/m 8,0 km/h (2 Bft) S-SO 147 3 min 540 W/m 5,3 C 16,9 C 12,9 km/h (3 Bft)
07.04.2018 14:39 17,9 C 43 % 1010,3 hPa 0,0 l/m 8,2 km/h (2 Bft) O-SO 109 3 min 559 W/m 5,1 C 17,1 C 17,7 km/h (3 Bft)
07.04.2018 14:42 17,7 C 43 % 1010,3 hPa 0,0 l/m 6,8 km/h (2 Bft) SO 145 3 min 504 W/m 5,0 C 17,5 C 14,5 km/h (3 Bft)
07.04.2018 14:45 17,8 C 45 % 1010,3 hPa 0,0 l/m 6,1 km/h (2 Bft) SO 128 3 min 418 W/m 5,7 C 17,8 C 14,5 km/h (3 Bft)
07.04.2018 14:48 18,0 C 44 % 1010,2 hPa 0,0 l/m 7,0 km/h (2 Bft) O-SO 118 3 min 462 W/m 5,6 C 17,7 C 19,3 km/h (3 Bft)
07.04.2018 14:51 18,1 C 45 % 1010,1 hPa 0,0 l/m 5,5 km/h (2 Bft) O-SO 121 3 min 461 W/m 6,0 C 18,1 C 9,7 km/h (2 Bft)
07.04.2018 14:54 18,2 C 45 % 1010,2 hPa 0,0 l/m 6,2 km/h (2 Bft) O-SO 105 3 min 512 W/m 6,1 C 18,2 C 14,5 km/h (3 Bft)
07.04.2018 14:57 18,2 C 44 % 1010,1 hPa 0,0 l/m 6,2 km/h (2 Bft) O-SO 118 3 min 536 W/m 5,7 C 18,2 C 16,1 km/h (3 Bft)
07.04.2018 15:00 18,2 C 44 % 1010,0 hPa 0,0 l/m 8,4 km/h (2 Bft) O-SO 121 3 min 559 W/m 5,7 C 17,3 C 14,5 km/h (3 Bft)
07.04.2018 15:03 18,3 C 43 % 1010,0 hPa 0,0 l/m 9,5 km/h (2 Bft) O-SO 123 3 min 564 W/m 5,5 C 17,0 C 19,3 km/h (3 Bft)
07.04.2018 15:06 18,3 C 43 % 1010,0 hPa 0,0 l/m 8,5 km/h (2 Bft) S-SO 154 3 min 552 W/m 5,5 C 17,4 C 17,7 km/h (3 Bft)
07.04.2018 15:09 18,3 C 44 % 1010,0 hPa 0,0 l/m 7,3 km/h (2 Bft) S 169 3 min 527 W/m 5,8 C 17,9 C 17,7 km/h (3 Bft)
07.04.2018 15:12 18,6 C 46 % 1010,0 hPa 0,0 l/m 6,8 km/h (2 Bft) O-SO 121 3 min 527 W/m 6,8 C 18,4 C 14,5 km/h (3 Bft)
07.04.2018 15:15 18,8 C 46 % 1010,1 hPa 0,0 l/m 5,9 km/h (2 Bft) S 191 3 min 577 W/m 6,9 C 18,8 C 14,5 km/h (3 Bft)
07.04.2018 15:18 18,9 C 42 % 1010,1 hPa 0,0 l/m 7,6 km/h (2 Bft) SO 139 3 min 587 W/m 5,7 C 18,4 C 16,1 km/h (3 Bft)
07.04.2018 15:21 18,9 C 42 % 1010,0 hPa 0,0 l/m 11,8 km/h (2 Bft) S-SO 165 3 min 552 W/m 5,7 C 16,8 C 20,9 km/h (4 Bft)
07.04.2018 15:24 18,9 C 41 % 1010,0 hPa 0,0 l/m 9,3 km/h (2 Bft) S-SO 160 3 min 545 W/m 5,4 C 17,7 C 20,9 km/h (4 Bft)
07.04.2018 15:27 18,9 C 43 % 1010,0 hPa 0,0 l/m 7,9 km/h (2 Bft) S-SO 163 3 min 508 W/m 6,0 C 18,2 C 16,1 km/h (3 Bft)
07.04.2018 15:30 19,0 C 42 % 1010,0 hPa 0,0 l/m 7,8 km/h (2 Bft) O-SO 121 3 min 489 W/m 5,8 C 18,4 C 16,1 km/h (3 Bft)
07.04.2018 15:33 18,9 C 43 % 1009,9 hPa 0,0 l/m 8,4 km/h (2 Bft) O-SO 120 3 min 462 W/m 6,0 C 18,0 C 19,3 km/h (3 Bft)
07.04.2018 15:36 18,8 C 42 % 1009,9 hPa 0,0 l/m 10,8 km/h (2 Bft) O-SO 122 3 min 501 W/m 5,6 C 17,0 C 17,7 km/h (3 Bft)
07.04.2018 15:39 19,0 C 44 % 1009,9 hPa 0,0 l/m 8,8 km/h (2 Bft) S 178 3 min 526 W/m 6,5 C 18,0 C 16,1 km/h (3 Bft)
07.04.2018 15:42 19,2 C 43 % 1009,9 hPa 0,0 l/m 9,1 km/h (2 Bft) S-SO 157 3 min 476 W/m 6,3 C 18,1 C 17,7 km/h (3 Bft)
07.04.2018 15:45 19,2 C 44 % 1009,9 hPa 0,0 l/m 9,4 km/h (2 Bft) SO 131 3 min 485 W/m 6,7 C 18,0 C 20,9 km/h (4 Bft)
07.04.2018 15:48 19,2 C 42 % 1009,8 hPa 0,0 l/m 6,6 km/h (2 Bft) S 170 3 min 494 W/m 6,0 C 19,1 C 14,5 km/h (3 Bft)
07.04.2018 15:51 19,3 C 42 % 1009,8 hPa 0,0 l/m 9,5 km/h (2 Bft) SO 130 3 min 499 W/m 6,1 C 18,0 C 17,7 km/h (3 Bft)
07.04.2018 15:54 19,1 C 42 % 1009,8 hPa 0,0 l/m 7,6 km/h (2 Bft) S-SO 165 3 min 499 W/m 5,9 C 18,6 C 16,1 km/h (3 Bft)
07.04.2018 15:57 19,3 C 44 % 1009,8 hPa 0,0 l/m 7,8 km/h (2 Bft) SO 136 3 min 494 W/m 6,7 C 18,7 C 19,3 km/h (3 Bft)
07.04.2018 16:00 19,4 C 41 % 1009,7 hPa 0,0 l/m 7,7 km/h (2 Bft) S-SO 163 3 min 489 W/m 5,8 C 18,8 C 12,9 km/h (3 Bft)
07.04.2018 16:03 19,6 C 43 % 1009,7 hPa 0,0 l/m 8,7 km/h (2 Bft) S-SO 150 3 min 497 W/m 6,7 C 18,7 C 16,1 km/h (3 Bft)
07.04.2018 16:06 19,7 C 43 % 1009,7 hPa 0,0 l/m 7,1 km/h (2 Bft) O-SO 104 3 min 473 W/m 6,8 C 19,4 C 12,9 km/h (3 Bft)
07.04.2018 16:09 19,7 C 41 % 1009,6 hPa 0,0 l/m 7,8 km/h (2 Bft) S-SO 157 3 min 478 W/m 6,1 C 19,1 C 20,9 km/h (4 Bft)
07.04.2018 16:12 19,7 C 41 % 1009,6 hPa 0,0 l/m 8,2 km/h (2 Bft) O-SO 103 3 min 499 W/m 6,1 C 19,0 C 14,5 km/h (3 Bft)
07.04.2018 16:15 19,8 C 41 % 1009,6 hPa 0,0 l/m 8,3 km/h (2 Bft) S-SO 156 3 min 471 W/m 6,2 C 19,0 C 17,7 km/h (3 Bft)
07.04.2018 16:18 19,8 C 40 % 1009,6 hPa 0,0 l/m 9,4 km/h (2 Bft) O-SO 112 3 min 425 W/m 5,8 C 18,6 C 14,5 km/h (3 Bft)
07.04.2018 16:21 19,7 C 40 % 1009,5 hPa 0,0 l/m 5,8 km/h (2 Bft) SO 142 3 min 394 W/m 5,7 C 19,7 C 12,9 km/h (3 Bft)
07.04.2018 16:24 19,7 C 40 % 1009,5 hPa 0,0 l/m 9,4 km/h (2 Bft) SO 125 3 min 408 W/m 5,7 C 18,5 C 16,1 km/h (3 Bft)
07.04.2018 16:27 19,6 C 40 % 1009,5 hPa 0,0 l/m 7,2 km/h (2 Bft) S 170 3 min 429 W/m 5,6 C 19,3 C 12,9 km/h (3 Bft)
07.04.2018 16:30 19,5 C 40 % 1009,5 hPa 0,0 l/m 5,1 km/h (1 Bft) SO 129 3 min 413 W/m 5,5 C 19,5 C 14,5 km/h (3 Bft)
07.04.2018 16:33 19,6 C 41 % 1009,5 hPa 0,0 l/m 5,2 km/h (1 Bft) O-SO 105 3 min 376 W/m 6,0 C 19,6 C 12,9 km/h (3 Bft)
07.04.2018 16:36 19,7 C 40 % 1009,4 hPa 0,0 l/m 7,3 km/h (2 Bft) S 173 3 min 404 W/m 5,7 C 19,3 C 14,5 km/h (3 Bft)
07.04.2018 16:39 19,5 C 40 % 1009,4 hPa 0,0 l/m 9,5 km/h (2 Bft) S-SW 200 3 min 345 W/m 5,5 C 18,3 C 17,7 km/h (3 Bft)
07.04.2018 16:42 19,5 C 42 % 1009,3 hPa 0,0 l/m 7,8 km/h (2 Bft) S-SO 149 3 min 360 W/m 6,2 C 18,9 C 16,1 km/h (3 Bft)
07.04.2018 16:45 19,4 C 42 % 1009,2 hPa 0,0 l/m 7,2 km/h (2 Bft) SO 141 3 min 348 W/m 6,2 C 19,1 C 16,1 km/h (3 Bft)
07.04.2018 16:48 19,6 C 42 % 1009,2 hPa 0,0 l/m 5,5 km/h (2 Bft) S-SO 162 3 min 355 W/m 6,3 C 19,6 C 14,5 km/h (3 Bft)
07.04.2018 16:51 19,7 C 42 % 1009,2 hPa 0,0 l/m 6,4 km/h (2 Bft) O-NO 61 3 min 357 W/m 6,4 C 19,7 C 12,9 km/h (3 Bft)
07.04.2018 16:54 19,7 C 41 % 1009,3 hPa 0,0 l/m 4,8 km/h (1 Bft) S-SO 147 3 min 345 W/m 6,1 C 19,7 C 9,7 km/h (2 Bft)
07.04.2018 16:57 19,8 C 43 % 1009,3 hPa 0,0 l/m 6,0 km/h (2 Bft) S-SO 167 3 min 316 W/m 6,9 C 19,8 C 11,3 km/h (2 Bft)
07.04.2018 17:00 19,7 C 41 % 1009,3 hPa 0,0 l/m 7,0 km/h (2 Bft) S-SO 159 3 min 318 W/m 6,1 C 19,5 C 12,9 km/h (3 Bft)
07.04.2018 17:03 19,5 C 40 % 1009,2 hPa 0,0 l/m 8,8 km/h (2 Bft) SO 131 3 min 315 W/m 5,5 C 18,5 C 17,7 km/h (3 Bft)
07.04.2018 17:06 19,4 C 41 % 1009,1 hPa 0,0 l/m 5,8 km/h (2 Bft) O 94 3 min 262 W/m 5,8 C 19,4 C 12,9 km/h (3 Bft)
07.04.2018 17:09 19,4 C 39 % 1009,1 hPa 0,0 l/m 8,7 km/h (2 Bft) S 176 3 min 304 W/m 5,1 C 18,4 C 14,5 km/h (3 Bft)
07.04.2018 17:12 19,4 C 41 % 1009,0 hPa 0,0 l/m 5,0 km/h (1 Bft) O-SO 107 3 min 299 W/m 5,8 C 19,4 C 9,7 km/h (2 Bft)
07.04.2018 17:15 19,4 C 41 % 1009,0 hPa 0,0 l/m 8,8 km/h (2 Bft) S 178 3 min 299 W/m 5,8 C 18,4 C 16,1 km/h (3 Bft)
07.04.2018 17:18 19,4 C 41 % 1009,0 hPa 0,0 l/m 8,7 km/h (2 Bft) S-SO 160 3 min 279 W/m 5,8 C 18,4 C 17,7 km/h (3 Bft)
07.04.2018 17:21 19,3 C 41 % 1009,0 hPa 0,0 l/m 7,6 km/h (2 Bft) SO 144 3 min 257 W/m 5,7 C 18,8 C 14,5 km/h (3 Bft)
07.04.2018 17:24 19,3 C 40 % 1008,9 hPa 0,0 l/m 7,7 km/h (2 Bft) SO 127 3 min 257 W/m 5,4 C 18,7 C 16,1 km/h (3 Bft)
07.04.2018 17:27 19,3 C 41 % 1008,9 hPa 0,0 l/m 8,6 km/h (2 Bft) S-SO 168 3 min 214 W/m 5,7 C 18,4 C 16,1 km/h (3 Bft)
07.04.2018 17:30 19,2 C 41 % 1008,8 hPa 0,0 l/m 6,4 km/h (2 Bft) O-SO 119 3 min 236 W/m 5,6 C 19,2 C 11,3 km/h (2 Bft)
07.04.2018 17:33 19,3 C 41 % 1008,8 hPa 0,0 l/m 3,6 km/h (1 Bft) SO 144 3 min 221 W/m 5,7 C 19,3 C 9,7 km/h (2 Bft)
07.04.2018 17:36 19,3 C 41 % 1008,8 hPa 0,0 l/m 4,3 km/h (1 Bft) O-NO 74 0 min 188 W/m 5,7 C 19,3 C 11,3 km/h (2 Bft)
07.04.2018 17:39 19,2 C 42 % 1008,8 hPa 0,0 l/m 6,7 km/h (2 Bft) SO 138 0 min 195 W/m 6,0 C 19,1 C 14,5 km/h (3 Bft)
07.04.2018 17:42 19,2 C 41 % 1008,8 hPa 0,0 l/m 4,9 km/h (1 Bft) O 80 3 min 195 W/m 5,6 C 19,2 C 9,7 km/h (2 Bft)
07.04.2018 17:45 19,2 C 42 % 1008,7 hPa 0,0 l/m 4,0 km/h (1 Bft) O-SO 103 3 min 204 W/m 6,0 C 19,2 C 6,4 km/h (2 Bft)
07.04.2018 17:48 19,2 C 41 % 1008,7 hPa 0,0 l/m 5,3 km/h (1 Bft) S-SO 160 0 min 158 W/m 5,6 C 19,2 C 19,3 km/h (3 Bft)
07.04.2018 17:51 19,2 C 41 % 1008,7 hPa 0,0 l/m 4,7 km/h (1 Bft) S-SO 147 0 min 116 W/m 5,6 C 19,2 C 8,0 km/h (2 Bft)
07.04.2018 17:54 19,1 C 40 % 1008,7 hPa 0,0 l/m 7,4 km/h (2 Bft) SO 138 0 min 104 W/m 5,2 C 18,7 C 14,5 km/h (3 Bft)
07.04.2018 17:57 18,9 C 41 % 1008,7 hPa 0,0 l/m 6,2 km/h (2 Bft) SO 138 0 min 83 W/m 5,4 C 18,9 C 11,3 km/h (2 Bft)
07.04.2018 18:00 18,8 C 42 % 1008,6 hPa 0,0 l/m 3,1 km/h (1 Bft) SO 134 0 min 70 W/m 5,6 C 18,8 C 8,0 km/h (2 Bft)
07.04.2018 18:03 18,6 C 43 % 1008,6 hPa 0,0 l/m 4,1 km/h (1 Bft) SO 127 0 min 69 W/m 5,8 C 18,6 C 11,3 km/h (2 Bft)
07.04.2018 18:06 18,5 C 45 % 1008,6 hPa 0,0 l/m 5,6 km/h (2 Bft) O-SO 121 0 min 72 W/m 6,3 C 18,5 C 16,1 km/h (3 Bft)
07.04.2018 18:09 18,4 C 44 % 1008,6 hPa 0,0 l/m 6,7 km/h (2 Bft) S-SO 155 0 min 83 W/m 5,9 C 18,3 C 11,3 km/h (2 Bft)
07.04.2018 18:12 18,4 C 44 % 1008,5 hPa 0,0 l/m 7,0 km/h (2 Bft) S-SO 150 0 min 107 W/m 5,9 C 18,1 C 12,9 km/h (3 Bft)
07.04.2018 18:15 18,3 C 46 % 1008,6 hPa 0,0 l/m 5,5 km/h (2 Bft) O-SO 116 0 min 104 W/m 6,5 C 18,3 C 12,9 km/h (3 Bft)
07.04.2018 18:18 18,3 C 46 % 1008,5 hPa 0,0 l/m 5,3 km/h (1 Bft) SO 140 0 min 95 W/m 6,5 C 18,3 C 12,9 km/h (3 Bft)
07.04.2018 18:21 18,3 C 45 % 1008,5 hPa 0,0 l/m 5,1 km/h (1 Bft) O 101 0 min 83 W/m 6,2 C 18,3 C 9,7 km/h (2 Bft)
07.04.2018 18:24 18,3 C 45 % 1008,5 hPa 0,0 l/m 7,7 km/h (2 Bft) SO 128 0 min 76 W/m 6,2 C 17,7 C 14,5 km/h (3 Bft)
07.04.2018 18:27 18,2 C 44 % 1008,5 hPa 0,0 l/m 7,5 km/h (2 Bft) SO 129 0 min 76 W/m 5,7 C 17,7 C 17,7 km/h (3 Bft)
07.04.2018 18:30 18,2 C 45 % 1008,4 hPa 0,0 l/m 4,7 km/h (1 Bft) SO 138 0 min 83 W/m 6,1 C 18,2 C 12,9 km/h (3 Bft)
07.04.2018 18:33 18,1 C 45 % 1008,5 hPa 0,0 l/m 5,4 km/h (2 Bft) O-SO 107 0 min 98 W/m 6,0 C 18,1 C 14,5 km/h (3 Bft)
07.04.2018 18:36 18,2 C 45 % 1008,4 hPa 0,0 l/m 6,5 km/h (2 Bft) SO 136 0 min 91 W/m 6,1 C 18,2 C 16,1 km/h (3 Bft)
07.04.2018 18:39 18,1 C 46 % 1008,4 hPa 0,0 l/m 4,1 km/h (1 Bft) S-SO 157 0 min 84 W/m 6,3 C 18,1 C 8,0 km/h (2 Bft)
07.04.2018 18:42 18,1 C 46 % 1008,4 hPa 0,0 l/m 3,4 km/h (1 Bft) O 94 0 min 88 W/m 6,3 C 18,1 C 6,4 km/h (2 Bft)
07.04.2018 18:45 18,0 C 47 % 1008,4 hPa 0,0 l/m 4,4 km/h (1 Bft) S-SO 147 0 min 95 W/m 6,5 C 18,0 C 12,9 km/h (3 Bft)
07.04.2018 18:48 18,0 C 47 % 1008,4 hPa 0,0 l/m 4,1 km/h (1 Bft) SO 127 0 min 100 W/m 6,5 C 18,0 C 12,9 km/h (3 Bft)
07.04.2018 18:51 18,0 C 46 % 1008,4 hPa 0,0 l/m 4,4 km/h (1 Bft) O-SO 117 3 min 105 W/m 6,2 C 18,0 C 11,3 km/h (2 Bft)
07.04.2018 18:54 18,1 C 47 % 1008,4 hPa 0,0 l/m 4,9 km/h (1 Bft) O-SO 117 0 min 74 W/m 6,6 C 18,1 C 9,7 km/h (2 Bft)
07.04.2018 18:57 18,2 C 46 % 1008,4 hPa 0,0 l/m 4,1 km/h (1 Bft) SO 138 0 min 58 W/m 6,4 C 18,2 C 9,7 km/h (2 Bft)
07.04.2018 19:00 18,1 C 47 % 1008,4 hPa 0,0 l/m 4,2 km/h (1 Bft) SO 127 0 min 53 W/m 6,6 C 18,1 C 9,7 km/h (2 Bft)
07.04.2018 19:03 17,9 C 47 % 1008,4 hPa 0,0 l/m 5,1 km/h (1 Bft) SO 127 0 min 51 W/m 6,4 C 17,9 C 11,3 km/h (2 Bft)
07.04.2018 19:06 17,8 C 48 % 1008,3 hPa 0,0 l/m 4,4 km/h (1 Bft) O-SO 120 0 min 47 W/m 6,6 C 17,8 C 11,3 km/h (2 Bft)
07.04.2018 19:09 17,7 C 48 % 1008,3 hPa 0,0 l/m 4,6 km/h (1 Bft) SO 124 0 min 46 W/m 6,6 C 17,7 C 9,7 km/h (2 Bft)
07.04.2018 19:12 17,6 C 49 % 1008,3 hPa 0,0 l/m 4,5 km/h (1 Bft) O-SO 113 0 min 44 W/m 6,8 C 17,6 C 9,7 km/h (2 Bft)
07.04.2018 19:15 17,5 C 49 % 1008,2 hPa 0,0 l/m 4,3 km/h (1 Bft) O-SO 104 0 min 42 W/m 6,7 C 17,5 C 9,7 km/h (2 Bft)
07.04.2018 19:18 17,3 C 49 % 1008,2 hPa 0,0 l/m 3,9 km/h (1 Bft) O-SO 120 0 min 40 W/m 6,5 C 17,3 C 11,3 km/h (2 Bft)
07.04.2018 19:21 17,3 C 49 % 1008,3 hPa 0,0 l/m 5,3 km/h (1 Bft) O-NO 78 0 min 39 W/m 6,5 C 17,3 C 12,9 km/h (3 Bft)
07.04.2018 19:24 17,3 C 49 % 1008,3 hPa 0,0 l/m 4,5 km/h (1 Bft) S-SO 157 0 min 35 W/m 6,5 C 17,3 C 9,7 km/h (2 Bft)
07.04.2018 19:27 17,2 C 49 % 1008,4 hPa 0,0 l/m 6,0 km/h (2 Bft) SO 127 0 min 33 W/m 6,4 C 17,2 C 11,3 km/h (2 Bft)
07.04.2018 19:30 17,2 C 48 % 1008,3 hPa 0,0 l/m 6,2 km/h (2 Bft) S-SO 153 0 min 32 W/m 6,1 C 17,2 C 19,3 km/h (3 Bft)
07.04.2018 19:33 17,2 C 48 % 1008,3 hPa 0,0 l/m 6,6 km/h (2 Bft) SO 128 0 min 28 W/m 6,1 C 17,1 C 14,5 km/h (3 Bft)
07.04.2018 19:36 17,1 C 49 % 1008,2 hPa 0,0 l/m 4,9 km/h (1 Bft) O 86 0 min 25 W/m 6,3 C 17,1 C 11,3 km/h (2 Bft)
07.04.2018 19:39 17,0 C 48 % 1008,3 hPa 0,0 l/m 6,3 km/h (2 Bft) S-SO 156 0 min 23 W/m 5,9 C 17,0 C 12,9 km/h (3 Bft)
07.04.2018 19:42 17,0 C 48 % 1008,3 hPa 0,0 l/m 6,1 km/h (2 Bft) SO 135 0 min 19 W/m 5,9 C 17,0 C 11,3 km/h (2 Bft)
07.04.2018 19:45 16,9 C 49 % 1008,3 hPa 0,0 l/m 5,2 km/h (1 Bft) O-SO 118 0 min 18 W/m 6,1 C 16,9 C 12,9 km/h (3 Bft)
07.04.2018 19:48 16,8 C 49 % 1008,4 hPa 0,0 l/m 5,5 km/h (2 Bft) O-SO 118 0 min 14 W/m 6,0 C 16,8 C 12,9 km/h (3 Bft)
07.04.2018 19:51 16,8 C 49 % 1008,3 hPa 0,0 l/m 6,4 km/h (2 Bft) S-SO 154 0 min 12 W/m 6,0 C 16,8 C 12,9 km/h (3 Bft)
07.04.2018 19:54 16,7 C 49 % 1008,3 hPa 0,0 l/m 4,0 km/h (1 Bft) S-SO 147 0 min 11 W/m 5,9 C 16,7 C 6,4 km/h (2 Bft)
07.04.2018 19:57 16,5 C 50 % 1008,4 hPa 0,0 l/m 4,3 km/h (1 Bft) SO 140 0 min 9 W/m 6,0 C 16,5 C 8,0 km/h (2 Bft)
07.04.2018 20:00 16,4 C 50 % 1008,4 hPa 0,0 l/m 4,9 km/h (1 Bft) S-SO 165 0 min 7 W/m 6,0 C 16,4 C 11,3 km/h (2 Bft)
07.04.2018 20:03 16,3 C 51 % 1008,4 hPa 0,0 l/m 4,4 km/h (1 Bft) O-SO 123 0 min 5 W/m 6,1 C 16,3 C 11,3 km/h (2 Bft)
07.04.2018 20:06 16,2 C 51 % 1008,4 hPa 0,0 l/m 3,9 km/h (1 Bft) SO 126 0 min 0 W/m 6,1 C 16,2 C 8,0 km/h (2 Bft)
07.04.2018 20:09 16,1 C 51 % 1008,4 hPa 0,0 l/m 4,4 km/h (1 Bft) O-SO 113 0 min 0 W/m 6,0 C 16,1 C 9,7 km/h (2 Bft)
07.04.2018 20:12 16,0 C 52 % 1008,4 hPa 0,0 l/m 4,4 km/h (1 Bft) O-SO 111 0 min 0 W/m 6,2 C 16,0 C 8,0 km/h (2 Bft)
07.04.2018 20:15 15,9 C 52 % 1008,4 hPa 0,0 l/m 4,9 km/h (1 Bft) O-SO 115 0 min 0 W/m 6,1 C 15,9 C 8,0 km/h (2 Bft)
07.04.2018 20:18 15,8 C 53 % 1008,4 hPa 0,0 l/m 5,3 km/h (1 Bft) SO 128 0 min 0 W/m 6,2 C 15,8 C 11,3 km/h (2 Bft)
07.04.2018 20:21 15,8 C 53 % 1008,5 hPa 0,0 l/m 5,1 km/h (1 Bft) SO 134 0 min 0 W/m 6,2 C 15,8 C 8,0 km/h (2 Bft)
07.04.2018 20:24 15,7 C 53 % 1008,5 hPa 0,0 l/m 5,4 km/h (2 Bft) S-SO 152 0 min 0 W/m 6,1 C 15,7 C 11,3 km/h (2 Bft)
07.04.2018 20:27 15,6 C 53 % 1008,5 hPa 0,0 l/m 4,3 km/h (1 Bft) S-SO 158 0 min 0 W/m 6,1 C 15,6 C 12,9 km/h (3 Bft)
07.04.2018 20:30 15,5 C 54 % 1008,5 hPa 0,0 l/m 3,5 km/h (1 Bft) S-SO 156 0 min 0 W/m 6,2 C 15,5 C 8,0 km/h (2 Bft)
07.04.2018 20:33 15,4 C 54 % 1008,6 hPa 0,0 l/m 3,6 km/h (1 Bft) SO 137 0 min 0 W/m 6,1 C 15,4 C 4,8 km/h (1 Bft)
07.04.2018 20:36 15,3 C 54 % 1008,6 hPa 0,0 l/m 4,1 km/h (1 Bft) SO 137 0 min 0 W/m 6,0 C 15,3 C 8,0 km/h (2 Bft)
07.04.2018 20:39 15,2 C 54 % 1008,6 hPa 0,0 l/m 4,2 km/h (1 Bft) O-SO 122 0 min 0 W/m 6,0 C 15,2 C 8,0 km/h (2 Bft)
07.04.2018 20:42 15,1 C 54 % 1008,6 hPa 0,0 l/m 4,4 km/h (1 Bft) O-SO 123 0 min 0 W/m 5,9 C 15,1 C 6,4 km/h (2 Bft)
07.04.2018 20:45 15,0 C 55 % 1008,5 hPa 0,0 l/m 3,9 km/h (1 Bft) SO 132 0 min 0 W/m 6,0 C 15,0 C 8,0 km/h (2 Bft)
07.04.2018 20:48 14,9 C 55 % 1008,6 hPa 0,0 l/m 3,0 km/h (1 Bft) O-SO 121 0 min 0 W/m 5,9 C 14,9 C 6,4 km/h (2 Bft)
07.04.2018 20:51 14,8 C 56 % 1008,6 hPa 0,0 l/m 3,1 km/h (1 Bft) SO 128 0 min 0 W/m 6,1 C 14,8 C 8,0 km/h (2 Bft)
07.04.2018 20:54 14,7 C 56 % 1008,6 hPa 0,0 l/m 3,7 km/h (1 Bft) S-SO 157 0 min 0 W/m 6,0 C 14,7 C 8,0 km/h (2 Bft)
07.04.2018 20:57 14,7 C 56 % 1008,5 hPa 0,0 l/m 4,1 km/h (1 Bft) SO 140 0 min 0 W/m 6,0 C 14,7 C 6,4 km/h (2 Bft)
07.04.2018 21:00 14,6 C 56 % 1008,6 hPa 0,0 l/m 4,6 km/h (1 Bft) SO 130 0 min 0 W/m 5,9 C 14,6 C 6,4 km/h (2 Bft)
07.04.2018 21:03 14,6 C 56 % 1008,6 hPa 0,0 l/m 4,5 km/h (1 Bft) SO 138 0 min 0 W/m 5,9 C 14,6 C 11,3 km/h (2 Bft)
07.04.2018 21:06 14,6 C 56 % 1008,6 hPa 0,0 l/m 2,9 km/h (1 Bft) SO 138 0 min 0 W/m 5,9 C 14,6 C 4,8 km/h (1 Bft)
07.04.2018 21:09 14,5 C 56 % 1008,6 hPa 0,0 l/m 4,0 km/h (1 Bft) SO 140 0 min 0 W/m 5,8 C 14,5 C 8,0 km/h (2 Bft)
07.04.2018 21:12 14,4 C 56 % 1008,6 hPa 0,0 l/m 4,1 km/h (1 Bft) SO 140 0 min 0 W/m 5,7 C 14,4 C 6,4 km/h (2 Bft)
07.04.2018 21:15 14,4 C 56 % 1008,6 hPa 0,0 l/m 4,5 km/h (1 Bft) O-SO 123 0 min 0 W/m 5,7 C 14,4 C 8,0 km/h (2 Bft)
07.04.2018 21:18 14,4 C 56 % 1008,6 hPa 0,0 l/m 3,9 km/h (1 Bft) S-SO 150 0 min 0 W/m 5,7 C 14,4 C 6,4 km/h (2 Bft)
07.04.2018 21:21 14,4 C 56 % 1008,6 hPa 0,0 l/m 5,1 km/h (1 Bft) SO 144 0 min 0 W/m 5,7 C 14,4 C 8,0 km/h (2 Bft)
07.04.2018 21:24 14,4 C 56 % 1008,7 hPa 0,0 l/m 4,8 km/h (1 Bft) O-SO 119 0 min 0 W/m 5,7 C 14,4 C 9,7 km/h (2 Bft)
07.04.2018 21:27 14,4 C 56 % 1008,7 hPa 0,0 l/m 5,0 km/h (1 Bft) SO 142 0 min 0 W/m 5,7 C 14,4 C 11,3 km/h (2 Bft)
07.04.2018 21:30 14,3 C 56 % 1008,7 hPa 0,0 l/m 5,4 km/h (2 Bft) SO 136 0 min 0 W/m 5,6 C 14,3 C 9,7 km/h (2 Bft)
07.04.2018 21:33 14,3 C 56 % 1008,7 hPa 0,0 l/m 5,2 km/h (1 Bft) SO 128 0 min 0 W/m 5,6 C 14,3 C 11,3 km/h (2 Bft)
07.04.2018 21:36 14,3 C 56 % 1008,7 hPa 0,0 l/m 4,8 km/h (1 Bft) SO 144 0 min 0 W/m 5,6 C 14,3 C 11,3 km/h (2 Bft)
07.04.2018 21:39 14,2 C 56 % 1008,7 hPa 0,0 l/m 5,1 km/h (1 Bft) SO 134 0 min 0 W/m 5,6 C 14,2 C 8,0 km/h (2 Bft)
07.04.2018 21:42 14,2 C 56 % 1008,7 hPa 0,0 l/m 4,9 km/h (1 Bft) SO 137 0 min 0 W/m 5,6 C 14,2 C 8,0 km/h (2 Bft)
07.04.2018 21:45 14,1 C 57 % 1008,7 hPa 0,0 l/m 4,5 km/h (1 Bft) SO 130 0 min 0 W/m 5,7 C 14,1 C 9,7 km/h (2 Bft)
07.04.2018 21:48 13,9 C 57 % 1008,7 hPa 0,0 l/m 4,3 km/h (1 Bft) SO 128 0 min 0 W/m 5,5 C 13,9 C 8,0 km/h (2 Bft)
07.04.2018 21:51 13,9 C 57 % 1008,7 hPa 0,0 l/m 3,9 km/h (1 Bft) O-SO 121 0 min 0 W/m 5,5 C 13,9 C 6,4 km/h (2 Bft)
07.04.2018 21:54 13,8 C 57 % 1008,7 hPa 0,0 l/m 4,2 km/h (1 Bft) SO 136 0 min 0 W/m 5,4 C 13,8 C 6,4 km/h (2 Bft)
07.04.2018 21:57 13,8 C 57 % 1008,6 hPa 0,0 l/m 4,3 km/h (1 Bft) SO 138 0 min 0 W/m 5,4 C 13,8 C 6,4 km/h (2 Bft)
07.04.2018 22:00 13,8 C 57 % 1008,6 hPa 0,0 l/m 4,9 km/h (1 Bft) SO 132 0 min 0 W/m 5,4 C 13,8 C 8,0 km/h (2 Bft)
07.04.2018 22:03 13,8 C 58 % 1008,6 hPa 0,0 l/m 4,9 km/h (1 Bft) SO 134 0 min 0 W/m 5,7 C 13,8 C 8,0 km/h (2 Bft)
07.04.2018 22:06 13,8 C 58 % 1008,7 hPa 0,0 l/m 5,1 km/h (1 Bft) O-SO 121 0 min 0 W/m 5,7 C 13,8 C 8,0 km/h (2 Bft)
07.04.2018 22:09 13,7 C 58 % 1008,7 hPa 0,0 l/m 3,4 km/h (1 Bft) O-SO 123 0 min 0 W/m 5,6 C 13,7 C 6,4 km/h (2 Bft)
07.04.2018 22:12 13,6 C 59 % 1008,7 hPa 0,0 l/m 3,9 km/h (1 Bft) SO 143 0 min 0 W/m 5,7 C 13,6 C 9,7 km/h (2 Bft)
07.04.2018 22:15 13,4 C 59 % 1008,7 hPa 0,0 l/m 3,7 km/h (1 Bft) SO 132 0 min 0 W/m 5,6 C 13,4 C 6,4 km/h (2 Bft)
07.04.2018 22:18 13,4 C 59 % 1008,7 hPa 0,0 l/m 3,3 km/h (1 Bft) O-SO 116 0 min 0 W/m 5,6 C 13,4 C 6,4 km/h (2 Bft)
07.04.2018 22:21 13,3 C 60 % 1008,7 hPa 0,0 l/m 3,5 km/h (1 Bft) O-SO 117 0 min 0 W/m 5,7 C 13,3 C 9,7 km/h (2 Bft)
07.04.2018 22:24 13,3 C 60 % 1008,7 hPa 0,0 l/m 4,9 km/h (1 Bft) O-SO 115 0 min 0 W/m 5,7 C 13,3 C 6,4 km/h (2 Bft)
07.04.2018 22:27 13,2 C 60 % 1008,7 hPa 0,0 l/m 4,2 km/h (1 Bft) SO 139 0 min 0 W/m 5,6 C 13,2 C 8,0 km/h (2 Bft)
07.04.2018 22:30 13,2 C 60 % 1008,6 hPa 0,0 l/m 3,4 km/h (1 Bft) SO 134 0 min 0 W/m 5,6 C 13,2 C 4,8 km/h (1 Bft)
07.04.2018 22:33 13,1 C 60 % 1008,6 hPa 0,0 l/m 4,2 km/h (1 Bft) O-SO 115 0 min 0 W/m 5,5 C 13,1 C 9,7 km/h (2 Bft)
07.04.2018 22:36 13,1 C 60 % 1008,6 hPa 0,0 l/m 4,5 km/h (1 Bft) S-SO 152 0 min 0 W/m 5,5 C 13,1 C 9,7 km/h (2 Bft)
07.04.2018 22:39 13,1 C 60 % 1008,7 hPa 0,0 l/m 4,8 km/h (1 Bft) SO 133 0 min 0 W/m 5,5 C 13,1 C 11,3 km/h (2 Bft)
07.04.2018 22:42 13,1 C 60 % 1008,6 hPa 0,0 l/m 5,5 km/h (2 Bft) SO 138 0 min 0 W/m 5,5 C 13,1 C 11,3 km/h (2 Bft)
07.04.2018 22:45 13,1 C 60 % 1008,6 hPa 0,0 l/m 5,7 km/h (2 Bft) SO 136 0 min 0 W/m 5,5 C 13,1 C 11,3 km/h (2 Bft)
07.04.2018 22:48 13,2 C 60 % 1008,6 hPa 0,0 l/m 5,4 km/h (2 Bft) SO 136 0 min 0 W/m 5,6 C 13,2 C 8,0 km/h (2 Bft)
07.04.2018 22:51 13,2 C 60 % 1008,6 hPa 0,0 l/m 5,2 km/h (1 Bft) SO 134 0 min 0 W/m 5,6 C 13,2 C 11,3 km/h (2 Bft)
07.04.2018 22:54 13,1 C 60 % 1008,6 hPa 0,0 l/m 6,0 km/h (2 Bft) SO 136 0 min 0 W/m 5,5 C 13,1 C 11,3 km/h (2 Bft)
07.04.2018 22:57 13,1 C 60 % 1008,6 hPa 0,0 l/m 6,2 km/h (2 Bft) SO 126 0 min 0 W/m 5,5 C 13,1 C 12,9 km/h (3 Bft)
07.04.2018 23:00 13,1 C 60 % 1008,6 hPa 0,0 l/m 6,4 km/h (2 Bft) SO 142 0 min 0 W/m 5,5 C 13,1 C 11,3 km/h (2 Bft)
07.04.2018 23:03 13,1 C 60 % 1008,6 hPa 0,0 l/m 5,9 km/h (2 Bft) SO 146 0 min 0 W/m 5,5 C 13,1 C 12,9 km/h (3 Bft)
07.04.2018 23:06 13,1 C 60 % 1008,6 hPa 0,0 l/m 6,0 km/h (2 Bft) S-SO 161 0 min 0 W/m 5,5 C 13,1 C 12,9 km/h (3 Bft)
07.04.2018 23:09 13,1 C 61 % 1008,6 hPa 0,0 l/m 6,1 km/h (2 Bft) O-SO 117 0 min 0 W/m 5,8 C 13,1 C 11,3 km/h (2 Bft)
07.04.2018 23:12 13,1 C 60 % 1008,6 hPa 0,0 l/m 7,6 km/h (2 Bft) SO 143 0 min 0 W/m 5,5 C 12,3 C 12,9 km/h (3 Bft)
07.04.2018 23:15 13,1 C 61 % 1008,5 hPa 0,0 l/m 7,0 km/h (2 Bft) O-SO 119 0 min 0 W/m 5,8 C 12,7 C 12,9 km/h (3 Bft)
07.04.2018 23:18 13,1 C 61 % 1008,5 hPa 0,0 l/m 8,3 km/h (2 Bft) SO 135 0 min 0 W/m 5,8 C 11,9 C 12,9 km/h (3 Bft)
07.04.2018 23:21 13,2 C 60 % 1008,4 hPa 0,0 l/m 7,4 km/h (2 Bft) SO 142 0 min 0 W/m 5,6 C 12,6 C 14,5 km/h (3 Bft)
07.04.2018 23:24 13,2 C 60 % 1008,4 hPa 0,0 l/m 7,3 km/h (2 Bft) SO 141 0 min 0 W/m 5,6 C 12,6 C 12,9 km/h (3 Bft)
07.04.2018 23:27 13,2 C 61 % 1008,4 hPa 0,0 l/m 6,8 km/h (2 Bft) SO 140 0 min 0 W/m 5,8 C 13,0 C 14,5 km/h (3 Bft)
07.04.2018 23:30 13,2 C 61 % 1008,4 hPa 0,0 l/m 7,7 km/h (2 Bft) SO 143 0 min 0 W/m 5,8 C 12,4 C 12,9 km/h (3 Bft)
07.04.2018 23:33 13,2 C 61 % 1008,4 hPa 0,0 l/m 7,5 km/h (2 Bft) SO 134 0 min 0 W/m 5,8 C 12,5 C 14,5 km/h (3 Bft)
07.04.2018 23:36 13,2 C 61 % 1008,4 hPa 0,0 l/m 8,0 km/h (2 Bft) SO 134 0 min 0 W/m 5,8 C 12,2 C 14,5 km/h (3 Bft)
07.04.2018 23:39 13,2 C 61 % 1008,4 hPa 0,0 l/m 7,9 km/h (2 Bft) SO 144 0 min 0 W/m 5,8 C 12,3 C 14,5 km/h (3 Bft)
07.04.2018 23:42 13,3 C 61 % 1008,3 hPa 0,0 l/m 7,1 km/h (2 Bft) SO 136 0 min 0 W/m 5,9 C 12,9 C 12,9 km/h (3 Bft)
07.04.2018 23:45 13,2 C 61 % 1008,3 hPa 0,0 l/m 7,6 km/h (2 Bft) SO 132 0 min 0 W/m 5,8 C 12,5 C 12,9 km/h (3 Bft)
07.04.2018 23:48 13,2 C 61 % 1008,3 hPa 0,0 l/m 8,1 km/h (2 Bft) SO 137 0 min 0 W/m 5,8 C 12,2 C 14,5 km/h (3 Bft)
07.04.2018 23:51 13,2 C 61 % 1008,2 hPa 0,0 l/m 7,5 km/h (2 Bft) SO 142 0 min 0 W/m 5,8 C 12,5 C 14,5 km/h (3 Bft)
07.04.2018 23:54 13,2 C 61 % 1008,2 hPa 0,0 l/m 8,9 km/h (2 Bft) SO 140 0 min 0 W/m 5,8 C 11,7 C 16,1 km/h (3 Bft)
07.04.2018 23:57 13,2 C 61 % 1008,2 hPa 0,0 l/m 8,0 km/h (2 Bft) SO 136 0 min 0 W/m 5,8 C 12,2 C 16,1 km/h (3 Bft)
_ Min-Zeit 06:30 17:09 19:15 - 21:06 - - - - 07:36 08:03 20:33
Minimum _ 5,3 C 39 % 1008,2 hPa - 2,9 km/h (1 Bft) - - - - -0,2 C 1,5 C 4,8 km/h (1 Bft)
_ Max-Zeit 16:18 05:06 00:03 00:00 10:33 - - 09:48 12:57 15:15 16:57 10:18
Maximum _ 19,9 C 73 % 1016,0 hPa 0,0 l/m 15,2 km/h
S (3 Bft)
- - 3 min 675 W/m 6,9 C 19,8 C 30,6 km/h
SO (5 Bft)
Durchschnitt _ 12,2 C 56 % 1011,5 hPa #0,0 l/m 7,9 km/h (2 Bft) SO - #7:48 h 319 W/m 3,4 C 10,9 C 15,9 km/h (3 Bft)
2018 Cux-Wetter.de -Die Nutzung der Wetterdaten nur mit ausdrcklicher Genehmigung